Provisional Data: Susquehanna River near Rockville, PA


Please select a monitoring station.
Please select start date.
Please select start date.

Toggle Unit: C/F Toggle Unit: C/F
Sample Time Temperature (C) Temperature (F) Specific Conductivity (mS/cm) pH   Turbidity (NTU+) DO (mg/L)
10/17/2022 12:00:00 AM 18.26 64.868 8.53 3.99 -5
10/17/2022 12:15:00 AM 18.78 65.804 8.5 3.93 -5
10/17/2022 12:30:00 AM 18.15 64.67 8.47 3.95 -5
10/17/2022 12:45:00 AM 18.26 64.868 8.44 3.92 -5
10/17/2022 1:00:00 AM 18.78 65.804 8.42 3.89 -5
10/17/2022 1:15:00 AM 18.03 64.454 8.4 3.98 -5
10/17/2022 1:30:00 AM 18.26 64.868 8.38 3.95 -5
10/17/2022 1:45:00 AM 18.78 65.804 8.37 4.08 -5
10/17/2022 2:00:00 AM 18.03 64.454 8.36 3.96 -5
10/17/2022 2:15:00 AM 18.26 64.868 8.36 3.96 -5
10/17/2022 2:30:00 AM 18.63 65.534 8.35 3.95 -5
10/17/2022 2:45:00 AM 17.9 64.22 8.34 4.03 -5
10/17/2022 3:00:00 AM 18.26 64.868 8.33 4.25 -5
10/17/2022 3:15:00 AM 18.63 65.534 8.32 4.03 -5
10/17/2022 3:30:00 AM 17.9 64.22 8.32 4.03 -5
10/17/2022 3:45:00 AM 18.23 64.814 8.31 4.05 -5
10/17/2022 4:00:00 AM 18.63 65.534 8.3 4.1 -5
10/17/2022 4:15:00 AM 18.03 64.454 8.29 4.35 -5
10/17/2022 4:30:00 AM 18.03 64.454 8.29 4.08 -5
10/17/2022 4:45:00 AM 18.52 65.336 8.28 4.08 -5
10/17/2022 5:00:00 AM 18.52 65.336 8.27 4.07 -5
10/17/2022 5:15:00 AM 17.79 64.022 8.26 4.12 -5
10/17/2022 5:30:00 AM 18.26 64.868 8.25 4.14 -5
10/17/2022 5:45:00 AM 18.52 65.336 8.24 4.13 -5
10/17/2022 6:00:00 AM 18.03 64.454 8.23 4.11 -5
10/17/2022 6:15:00 AM 17.9 64.22 8.22 4.14 -5
10/17/2022 6:30:00 AM 18.26 64.868 8.21 4.16 -5
10/17/2022 6:45:00 AM 18.52 65.336 8.19 4.18 -5
10/17/2022 7:00:00 AM 17.79 64.022 8.18 4.22 -5
10/17/2022 7:15:00 AM 18.03 64.454 8.16 4.17 -5
10/17/2022 7:30:00 AM 18.52 65.336 8.12 4.37 -5
10/17/2022 7:45:00 AM 18.63 65.534 8.12 4.2 -5
10/17/2022 8:00:00 AM 17.79 64.022 8.12 4.15 -5
10/17/2022 8:15:00 AM 18.15 64.67 8.11 4.1 -5
10/17/2022 8:30:00 AM 18.41 65.138 8.1 4.08 -5
10/17/2022 8:45:00 AM 18.63 65.534 8.1 4.02 -5
10/17/2022 9:00:00 AM 17.79 64.022 8.09 4.15 -5
10/17/2022 9:15:00 AM 18.03 64.454 8.09 4 -5
10/17/2022 9:30:00 AM 18.26 64.868 8.08 3.82 -5
10/17/2022 9:45:00 AM 18.52 65.336 8.09 3.76 -5
10/17/2022 10:00:00 AM 17.66 63.788 8.1 3.76 -5
10/17/2022 10:15:00 AM 18.03 64.454 8.11 3.72 -5
10/17/2022 10:30:00 AM 18.26 64.868 8.11 3.64 -5
10/17/2022 10:45:00 AM 18.52 65.336 8.12 3.63 -5
10/17/2022 11:00:00 AM 17.79 64.022 8.14 3.62 -5
10/17/2022 11:15:00 AM 18.15 64.67 8.16 3.62 -5
10/17/2022 11:30:00 AM 18.26 64.868 8.18 3.55 -5
10/17/2022 11:45:00 AM 18.03 64.454 8.18 3.49 -5
10/17/2022 12:00:00 PM 17.9 64.22 8.19 3.56 -5
10/17/2022 12:15:00 PM 18.26 64.868 8.22 3.44 -5
10/17/2022 12:30:00 PM 18.52 65.336 8.27 3.44 -5
10/17/2022 12:45:00 PM 17.79 64.022 8.31 3.41 -5
10/17/2022 1:00:00 PM 18.03 64.454 8.34 3.39 -5
10/17/2022 1:15:00 PM 18.41 65.138 8.36 3.5 -5
10/17/2022 1:30:00 PM 18.41 65.138 8.37 3.43 -5
10/17/2022 1:45:00 PM 17.9 64.22 8.4 3.42 -5
10/17/2022 2:00:00 PM 18.26 64.868 8.43 3.43 -5
10/17/2022 2:15:00 PM 18.41 65.138 8.47 3.42 -5
10/17/2022 2:30:00 PM 17.9 64.22 8.49 3.42 -5
10/17/2022 2:45:00 PM 18.14 64.652 8.52 3.39 -5
10/17/2022 3:00:00 PM 18.41 65.138 8.55 3.36 -5
10/17/2022 3:15:00 PM 17.9 64.22 8.57 3.37 -5
10/17/2022 3:30:00 PM 18.03 64.454 8.58 3.37 -5
10/17/2022 3:45:00 PM 18.41 65.138 8.6 3.41 -5
10/17/2022 4:00:00 PM 18.15 64.67 8.63 3.32 -5
10/17/2022 4:15:00 PM 17.9 64.22 8.64 3.3 -5
10/17/2022 4:30:00 PM 18.26 64.868 8.65 3.28 -5
10/17/2022 4:45:00 PM 18.52 65.336 8.67 3.26 -5
10/17/2022 5:00:00 PM 17.79 64.022 8.69 3.36 -5
10/17/2022 5:15:00 PM 18.14 64.652 8.71 3.34 -5
10/17/2022 5:30:00 PM 18.41 65.138 8.73 3.33 -5
10/17/2022 5:45:00 PM 17.79 64.022 8.76 3.34 -5
10/17/2022 6:00:00 PM 18.03 64.454 8.78 3.38 -5
10/17/2022 6:15:00 PM 18.26 64.868 8.78 3.5 -5
10/17/2022 6:30:00 PM 18.52 65.336 8.78 3.56 -5
10/17/2022 6:45:00 PM 17.66 63.788 8.79 3.47 -5
10/17/2022 7:00:00 PM 18.15 64.67 8.81 3.51 -5
10/17/2022 7:15:00 PM 18.41 65.138 8.81 3.52 -5
10/17/2022 7:30:00 PM 17.9 64.22 8.81 3.61 -5
10/17/2022 7:45:00 PM 17.79 64.022 8.8 3.63 -5
10/17/2022 8:00:00 PM 18.26 64.868 8.79 3.67 -5
10/17/2022 8:15:00 PM 18.41 65.138 8.76 3.72 -5
10/17/2022 8:30:00 PM 17.9 64.22 8.75 3.71 -5
10/17/2022 8:45:00 PM 17.79 64.022 8.73 3.89 -5
10/17/2022 9:00:00 PM 18.15 64.67 8.71 3.65 -5
10/17/2022 9:15:00 PM 18.26 64.868 8.69 3.64 -5
10/17/2022 9:30:00 PM 17.66 63.788 8.68 3.63 -5
10/17/2022 9:45:00 PM 17.66 63.788 8.67 3.68 -5
10/17/2022 10:00:00 PM 18.15 64.67 8.66 3.93 -5
10/17/2022 10:15:00 PM 18.41 65.138 8.66 3.64 -5
10/17/2022 10:30:00 PM 17.53 63.554 8.65 3.67 -5
10/17/2022 10:45:00 PM 17.9 64.22 8.65 3.66 -5
10/17/2022 11:00:00 PM 18.15 64.67 8.64 3.67 -5
10/17/2022 11:15:00 PM 18.03 64.454 8.62 3.72 -5
10/17/2022 11:30:00 PM 17.53 63.554 8.6 3.69 -5
10/17/2022 11:45:00 PM 17.9 64.22 8.57 3.64 -5
10/18/2022 12:00:00 AM 18.15 64.67 8.54 3.69 -5
10/18/2022 12:15:00 AM 17.66 63.788 8.51 3.64 -5
10/18/2022 12:30:00 AM 17.53 63.554 8.47 3.67 -5
10/18/2022 12:45:00 AM 17.9 64.22 8.45 3.7 -5
10/18/2022 1:00:00 AM 18.03 64.454 8.42 3.73 -5
10/18/2022 1:15:00 AM 17.29 63.122 8.39 3.73 -5
10/18/2022 1:30:00 AM 17.53 63.554 8.37 3.69 -5
10/18/2022 1:45:00 AM 17.79 64.022 8.36 3.68 -5
10/18/2022 2:00:00 AM 18.03 64.454 8.35 3.69 -5
10/18/2022 2:15:00 AM 17.16 62.888 8.34 3.71 -5
10/18/2022 2:30:00 AM 17.41 63.338 8.34 3.74 -5
10/18/2022 2:45:00 AM 17.66 63.788 8.34 3.73 -5
10/18/2022 3:00:00 AM 17.9 64.22 8.33 3.74 -5
10/18/2022 3:15:00 AM 17.53 63.554 8.32 3.74 -5
10/18/2022 3:30:00 AM 17.16 62.888 8.32 3.71 -5
10/18/2022 3:45:00 AM 17.53 63.554 8.31 3.77 -5
10/18/2022 4:00:00 AM 17.66 63.788 8.3 3.69 -5
10/18/2022 4:15:00 AM 17.9 64.22 8.29 3.72 -5
10/18/2022 4:30:00 AM 17.9 64.22 8.28 3.75 -5
10/18/2022 4:45:00 AM 17.03 62.654 8.27 3.79 -5
10/18/2022 5:00:00 AM 17.41 63.338 8.26 3.83 -5
10/18/2022 5:15:00 AM 17.53 63.554 8.25 3.78 -5
10/18/2022 5:30:00 AM 17.66 63.788 8.24 3.77 -5
10/18/2022 5:45:00 AM 17.66 63.788 8.23 3.79 -5
10/18/2022 6:00:00 AM 17.79 64.022 8.22 3.8 -5
10/18/2022 6:15:00 AM 17.66 63.788 8.22 3.89 -5
10/18/2022 6:30:00 AM 17.79 64.022 8.22 3.83 -5
10/18/2022 6:45:00 AM 16.78 62.204 8.21 3.83 -5
10/18/2022 7:00:00 AM 17.16 62.888 8.2 3.85 -5
10/18/2022 7:15:00 AM 17.41 63.338 8.19 3.87 -5
10/18/2022 7:30:00 AM 17.53 63.554 8.18 3.98 -5
10/18/2022 7:45:00 AM 17.53 63.554 8.18 3.84 -5
10/18/2022 8:00:00 AM 17.53 63.554 8.17 3.79 -5
10/18/2022 8:15:00 AM 17.53 63.554 8.17 3.75 -5
10/18/2022 8:30:00 AM 17.53 63.554 8.16 3.74 -5
10/18/2022 8:45:00 AM 17.42 63.356 8.15 3.72 -5
10/18/2022 9:00:00 AM 17.42 63.356 8.15 3.65 -5
10/18/2022 9:15:00 AM 17.16 62.888 8.16 3.63 -5
10/18/2022 9:30:00 AM 17.42 63.356 8.16 3.6 -5
10/18/2022 9:45:00 AM 17.41 63.338 8.18 3.56 -5
10/18/2022 10:00:00 AM 17.29 63.122 8.19 3.54 -5
10/18/2022 10:15:00 AM 17.41 63.338 8.21 3.46 -5
10/18/2022 10:30:00 AM 17.29 63.122 8.24 3.45 -5
10/18/2022 10:45:00 AM 17.29 63.122 8.28 3.45 -5
10/18/2022 11:00:00 AM 17.41 63.338 8.31 3.4 -5
10/18/2022 11:15:00 AM 17.29 63.122 8.33 3.38 -5
10/18/2022 11:30:00 AM 17.29 63.122 8.36 3.36 -5
10/18/2022 11:45:00 AM 17.42 63.356 8.38 3.33 -5
10/18/2022 12:00:00 PM 17.42 63.356 8.4 3.44 -5
10/18/2022 12:15:00 PM 17.42 63.356 8.45 3.35 -5
10/18/2022 12:30:00 PM 17.29 63.122 8.49 3.32 -5
10/18/2022 12:45:00 PM 17.41 63.338 8.53 3.36 -5
10/18/2022 1:00:00 PM 17.42 63.356 8.56 3.33 -5
10/18/2022 1:15:00 PM 17.66 63.788 8.6 3.44 -5
10/18/2022 1:30:00 PM 17.53 63.554 8.63 3.33 -5
10/18/2022 1:45:00 PM 17.53 63.554 8.64 3.35 -5
10/18/2022 2:00:00 PM 17.42 63.356 8.64 3.35 -5
10/18/2022 2:15:00 PM 17.53 63.554 8.66 3.34 -5
10/18/2022 2:30:00 PM 17.53 63.554 8.68 3.44 -5
10/18/2022 2:45:00 PM 17.53 63.554 8.71 3.3 -5
10/18/2022 3:00:00 PM 17.53 63.554 8.73 3.29 -5
10/18/2022 3:15:00 PM 17.53 63.554 8.77 3.27 -5
10/18/2022 3:30:00 PM 17.66 63.788 8.79 3.26 -5
10/18/2022 3:45:00 PM 16.78 62.204 8.81 3.29 -5
10/18/2022 4:00:00 PM 17.03 62.654 8.82 3.26 -5
10/18/2022 4:15:00 PM 17.29 63.122 8.84 3.18 -5
10/18/2022 4:30:00 PM 17.41 63.338 8.85 3.18 -5
10/18/2022 4:45:00 PM 17.53 63.554 8.86 3.19 -5
10/18/2022 5:00:00 PM 16.78 62.204 8.88 3.17 -5
10/18/2022 5:15:00 PM 16.78 62.204 8.89 3.2 -5
10/18/2022 5:30:00 PM 17.03 62.654 8.89 3.18 -5
10/18/2022 5:45:00 PM 17.29 63.122 8.89 3.18 -5
10/18/2022 6:00:00 PM 17.29 63.122 8.88 3.18 -5
10/18/2022 6:15:00 PM 17.29 63.122 8.88 3.17 -5
10/18/2022 6:30:00 PM 17.41 63.338 8.86 3.28 -5
10/18/2022 6:45:00 PM 16.4 61.52 8.85 3.32 -5
10/18/2022 7:00:00 PM 16.66 61.988 8.84 3.34 -5
10/18/2022 7:15:00 PM 16.92 62.456 8.83 3.31 -5
10/18/2022 7:30:00 PM 17.16 62.888 8.83 3.31 -5
10/18/2022 7:45:00 PM 17.29 63.122 8.81 3.32 -5
10/18/2022 8:00:00 PM 16.78 62.204 8.81 3.32 -5
10/18/2022 8:15:00 PM 16.54 61.772 8.8 3.37 -5
10/18/2022 8:30:00 PM 16.78 62.204 8.79 3.35 -5
10/18/2022 8:45:00 PM 17.03 62.654 8.78 3.42 -5
10/18/2022 9:00:00 PM 17.16 62.888 8.78 3.38 -5
10/18/2022 9:15:00 PM 17.29 63.122 8.77 3.38 -5
10/18/2022 9:30:00 PM 16.4 61.52 8.75 3.36 -5
10/18/2022 9:45:00 PM 16.78 62.204 8.73 3.39 -5
10/18/2022 10:00:00 PM 16.92 62.456 8.71 3.37 -5
10/18/2022 10:15:00 PM 17.03 62.654 8.69 3.35 -5
10/18/2022 10:30:00 PM 17.29 63.122 8.66 3.37 -5
10/18/2022 10:45:00 PM 17.29 63.122 8.63 3.41 -5
10/18/2022 11:00:00 PM 17.03 62.654 8.61 3.35 -5
10/18/2022 11:15:00 PM 16.29 61.322 8.58 3.33 -5
10/18/2022 11:30:00 PM 16.78 62.204 8.56 3.36 -5
10/18/2022 11:45:00 PM 16.92 62.456 8.53 3.37 -5
10/19/2022 12:00:00 AM 16.92 62.456 8.5 3.41 -5
10/19/2022 12:15:00 AM 17.03 62.654 8.48 3.36 -5
10/19/2022 12:30:00 AM 16.17 61.106 8.46 3.3 -5
10/19/2022 12:45:00 AM 16.54 61.772 8.44 3.34 -5
10/19/2022 1:00:00 AM 16.78 62.204 8.41 3.35 -5
10/19/2022 1:15:00 AM 16.88 62.384 8.39 3.45 -5
10/19/2022 1:30:00 AM 16.92 62.456 8.38 3.35 -5
10/19/2022 1:45:00 AM 16.92 62.456 8.36 3.32 -5
10/19/2022 2:00:00 AM 16.03 60.854 8.36 3.34 -5
10/19/2022 2:15:00 AM 16.4 61.52 8.35 3.37 -5
10/19/2022 2:30:00 AM 16.66 61.988 8.34 3.42 -5
10/19/2022 2:45:00 AM 16.78 62.204 8.34 3.37 -5
10/19/2022 3:00:00 AM 16.92 62.456 8.33 3.38 -5
10/19/2022 3:15:00 AM 16.92 62.456 8.33 3.39 -5
10/19/2022 3:30:00 AM 16.92 62.456 8.32 3.39 -5
10/19/2022 3:45:00 AM 16.29 61.322 8.31 3.37 -5
10/19/2022 4:00:00 AM 16.17 61.106 8.31 3.42 -5
10/19/2022 4:15:00 AM 16.4 61.52 8.31 3.36 -5
10/19/2022 4:30:00 AM 16.66 61.988 8.3 3.41 -5
10/19/2022 4:45:00 AM 16.66 61.988 8.29 3.41 -5
10/19/2022 5:00:00 AM 16.66 61.988 8.28 3.41 -5
10/19/2022 5:15:00 AM 16.66 61.988 8.27 3.4 -5
10/19/2022 5:30:00 AM 16.78 62.204 8.26 3.41 -5
10/19/2022 5:45:00 AM 16.66 61.988 8.26 3.43 -5
10/19/2022 6:00:00 AM 16.78 62.204 8.25 3.41 -5
10/19/2022 6:15:00 AM 16.03 60.854 8.24 3.4 -5
10/19/2022 6:30:00 AM 15.92 60.656 8.23 3.43 -5
10/19/2022 6:45:00 AM 16.29 61.322 8.22 2.85 -5
10/19/2022 7:00:00 AM 16.4 61.52 8.21 2.94 -5
10/19/2022 7:15:00 AM 16.55 61.79 8.2 2.87 -5
10/19/2022 7:30:00 AM 16.66 61.988 8.19 2.91 -5
10/19/2022 7:45:00 AM 16.55 61.79 8.18 2.87 -5
10/19/2022 8:00:00 AM 16.66 61.988 8.17 2.91 -5
10/19/2022 8:15:00 AM 16.66 61.988 8.17 3.01 -5
10/19/2022 8:30:00 AM 15.79 60.422 8.17 2.81 -5
10/19/2022 8:45:00 AM 15.92 60.656 8.17 2.8 -5
10/19/2022 9:00:00 AM 16.29 61.322 8.17 2.81 -5
10/19/2022 9:15:00 AM 16.4 61.52 8.17 2.82 -5
10/19/2022 9:30:00 AM 16.4 61.52 8.17 2.91 -5
10/19/2022 9:45:00 AM 16.4 61.52 8.19 2.75 -5
10/19/2022 10:00:00 AM 16.29 61.322 8.21 2.71 -5
10/19/2022 10:15:00 AM 16.4 61.52 8.24 2.69 -5
10/19/2022 10:30:00 AM 16.4 61.52 8.26 2.65 -5
10/19/2022 10:45:00 AM 16.4 61.52 8.29 2.64 -5
10/19/2022 11:00:00 AM 16.4 61.52 8.31 2.63 -5
10/19/2022 11:15:00 AM 16.4 61.52 8.34 2.62 -5
10/19/2022 11:30:00 AM 16.4 61.52 8.37 2.64 -5
10/19/2022 11:45:00 AM 16.4 61.52 8.39 2.63 -5
10/19/2022 12:00:00 PM 16.55 61.79 8.4 2.58 -5
10/19/2022 12:15:00 PM 16.55 61.79 8.43 2.6 -5
10/19/2022 12:30:00 PM 16.66 61.988 8.48 2.63 -5
10/19/2022 12:45:00 PM 16.55 61.79 8.52 2.62 -5
10/19/2022 1:00:00 PM 16.55 61.79 8.55 2.62 -5
10/19/2022 1:15:00 PM 16.54 61.772 8.57 2.6 -5
10/19/2022 1:30:00 PM 16.66 61.988 8.58 2.63 -5
10/19/2022 1:45:00 PM 16.4 61.52 8.6 2.6 -5
10/19/2022 2:00:00 PM 15.79 60.422 8.63 2.62 -5
10/19/2022 2:15:00 PM 16.03 60.854 8.65 2.63 -5
10/19/2022 2:30:00 PM 16.28 61.304 8.67 2.56 -5
10/19/2022 2:45:00 PM 16.4 61.52 8.68 2.58 -5
10/19/2022 3:00:00 PM 16.54 61.772 8.69 2.57 -5
10/19/2022 3:15:00 PM 16.41 61.538 8.72 2.54 -5
10/19/2022 3:30:00 PM 16.66 61.988 8.75 2.57 -5
10/19/2022 3:45:00 PM 16.54 61.772 8.77 2.58 -5
10/19/2022 4:00:00 PM 16.55 61.79 8.8 2.58 -5
10/19/2022 4:15:00 PM 16.66 61.988 8.82 2.62 -5
10/19/2022 4:30:00 PM 15.79 60.422 8.83 2.57 -5
10/19/2022 4:45:00 PM 16.17 61.106 8.86 2.57 -5
10/19/2022 5:00:00 PM 16.4 61.52 8.88 2.57 -5
10/19/2022 5:15:00 PM 16.55 61.79 8.89 2.56 -5
10/19/2022 5:30:00 PM 16.54 61.772 8.91 2.56 -5
10/19/2022 5:45:00 PM 16.66 61.988 8.93 2.59 -5
10/19/2022 6:00:00 PM 16.66 61.988 8.92 2.48 -5
10/19/2022 6:15:00 PM 16.54 61.772 8.92 2.58 -5
10/19/2022 6:30:00 PM 16.66 61.988 8.93 2.54 -5
10/19/2022 6:45:00 PM 16.55 61.79 8.94 2.57 -5
10/19/2022 7:00:00 PM 16.66 61.988 8.92 2.6 -5
10/19/2022 7:15:00 PM 16.03 60.854 8.91 2.58 -5
10/19/2022 7:30:00 PM 15.79 60.422 8.9 2.59 -5
10/19/2022 7:45:00 PM 16.17 61.106 8.89 2.59 -5
10/19/2022 8:00:00 PM 16.29 61.322 8.86 2.58 -5
10/19/2022 8:15:00 PM 16.4 61.52 8.84 2.59 -5
10/19/2022 8:30:00 PM 16.4 61.52 8.83 2.62 -5
10/19/2022 8:45:00 PM 16.29 61.322 8.81 2.61 -5
10/19/2022 9:00:00 PM 16.4 61.52 8.79 2.64 -5
10/19/2022 9:15:00 PM 16.17 61.106 8.78 2.63 -5
10/19/2022 9:30:00 PM 15.54 59.972 8.76 2.64 -5
10/19/2022 9:45:00 PM 15.79 60.422 8.75 2.68 -5
10/19/2022 10:00:00 PM 16.03 60.854 8.74 2.63 -5
10/19/2022 10:15:00 PM 16.29 61.322 8.74 2.66 -5
10/19/2022 10:30:00 PM 16.29 61.322 8.73 2.65 -5
10/19/2022 10:45:00 PM 16.29 61.322 8.72 2.7 -5
10/19/2022 11:00:00 PM 16.29 61.322 8.72 2.66 -5
10/19/2022 11:15:00 PM 15.92 60.656 8.71 2.68 -5
10/19/2022 11:30:00 PM 15.54 59.972 8.69 2.71 -5
10/19/2022 11:45:00 PM 15.79 60.422 8.68 2.68 -5
10/20/2022 12:00:00 AM 16.03 60.854 8.65 2.69 -5
10/20/2022 12:15:00 AM 16.03 60.854 8.62 2.67 -5
10/20/2022 12:30:00 AM 16.03 60.854 8.58 2.7 -5
10/20/2022 12:45:00 AM 16.17 61.106 8.55 2.75 -5
10/20/2022 1:00:00 AM 16.17 61.106 8.52 2.69 -5
10/20/2022 1:15:00 AM 16.17 61.106 8.48 2.69 -5
10/20/2022 1:30:00 AM 16.17 61.106 8.44 2.7 -5
10/20/2022 1:45:00 AM 16.17 61.106 8.41 2.73 -5
10/20/2022 2:00:00 AM 15.28 59.504 8.38 2.8 -5
10/20/2022 2:15:00 AM 15.41 59.738 8.36 2.71 -5
10/20/2022 2:30:00 AM 15.79 60.422 8.34 2.71 -5
10/20/2022 2:45:00 AM 15.92 60.656 8.33 2.74 -5
10/20/2022 3:00:00 AM 15.92 60.656 8.31 2.73 -5
10/20/2022 3:15:00 AM 15.91 60.638 8.29 2.86 -5
10/20/2022 3:30:00 AM 15.92 60.656 8.28 2.73 -5
10/20/2022 3:45:00 AM 15.92 60.656 8.27 2.73 -5
10/20/2022 4:00:00 AM 15.91 60.638 8.27 2.75 -5
10/20/2022 4:15:00 AM 15.92 60.656 8.26 2.87 -5
10/20/2022 4:30:00 AM 15.92 60.656 8.25 2.88 -5
10/20/2022 4:45:00 AM 15.92 60.656 8.24 2.8 -5
10/20/2022 5:00:00 AM 15.79 60.422 8.23 2.8 -5
10/20/2022 5:15:00 AM 15.92 60.656 8.22 2.75 -5
10/20/2022 5:30:00 AM 15.92 60.656 8.21 2.8 -5
10/20/2022 5:45:00 AM 15.92 60.656 8.2 2.78 -5
10/20/2022 6:00:00 AM 15.79 60.422 8.2 2.82 -5
10/20/2022 6:15:00 AM 15.79 60.422 8.19 2.76 -5
10/20/2022 6:30:00 AM 15.66 60.188 8.18 2.78 -5
10/20/2022 6:45:00 AM 15.66 60.188 8.18 2.78 -5
10/20/2022 7:00:00 AM 15.66 60.188 8.17 2.79 -5
10/20/2022 7:15:00 AM 15.66 60.188 8.16 2.79 -5
10/20/2022 7:30:00 AM 15.54 59.972 8.16 2.79 -5
10/20/2022 7:45:00 AM 15.54 59.972 8.15 2.71 -5
10/20/2022 8:00:00 AM 15.54 59.972 8.15 2.69 -5
10/20/2022 8:15:00 AM 15.54 59.972 8.15 2.66 -5
10/20/2022 8:30:00 AM 15.42 59.756 8.15 2.62 -5
10/20/2022 8:45:00 AM 15.41 59.738 8.15 2.62 -5
10/20/2022 9:00:00 AM 15.42 59.756 8.16 2.6 -5
10/20/2022 9:15:00 AM 15.41 59.738 8.16 2.6 -5
10/20/2022 9:30:00 AM 15.42 59.756 8.17 2.57 -5
10/20/2022 9:45:00 AM 15.41 59.738 8.18 2.58 -5
10/20/2022 10:00:00 AM 15.16 59.288 8.2 2.55 -5
10/20/2022 10:15:00 AM 15.28 59.504 8.23 2.54 -5
10/20/2022 10:30:00 AM 15.42 59.756 8.26 2.56 -5
10/20/2022 10:45:00 AM 15.42 59.756 8.3 2.49 -5
10/20/2022 11:00:00 AM 15.54 59.972 8.34 2.52 -5
10/20/2022 11:15:00 AM 15.66 60.188 8.37 2.54 -5
10/20/2022 11:30:00 AM 15.66 60.188 8.39 2.62 -5
10/20/2022 11:45:00 AM 15.66 60.188 8.42 2.63 -5
10/20/2022 12:00:00 PM 15.79 60.422 8.44 2.7 -5
10/20/2022 12:15:00 PM 15.92 60.656 8.48 2.63 -5
10/20/2022 12:30:00 PM 15.91 60.638 8.51 3.02 -5
10/20/2022 12:45:00 PM 16.03 60.854 8.56 2.82 -5
10/20/2022 1:00:00 PM 16.17 61.106 8.6 2.92 -5
10/20/2022 1:15:00 PM 16.17 61.106 8.63 2.65 -5
10/20/2022 1:30:00 PM 16.28 61.304 8.65 2.66 -5
10/20/2022 1:45:00 PM 15.42 59.756 8.68 2.8 -5
10/20/2022 2:00:00 PM 15.79 60.422 8.71 2.71 -5
10/20/2022 2:15:00 PM 16.03 60.854 8.74 2.85 -5
10/20/2022 2:30:00 PM 16.29 61.322 8.79 2.66 -5
10/20/2022 2:45:00 PM 16.4 61.52 8.81 2.54 -5
10/20/2022 3:00:00 PM 16.03 60.854 8.83 2.53 -5
10/20/2022 3:15:00 PM 15.92 60.656 8.86 2.52 -5
10/20/2022 3:30:00 PM 16.17 61.106 8.89 2.55 -5
10/20/2022 3:45:00 PM 16.55 61.79 8.92 2.55 -5
10/20/2022 4:00:00 PM 16.4 61.52 8.95 2.58 -5
10/20/2022 4:15:00 PM 15.92 60.656 8.97 2.59 -5
10/20/2022 4:30:00 PM 16.29 61.322 9 2.58 -5
10/20/2022 4:45:00 PM 16.55 61.79 9.01 2.56 -5
10/20/2022 5:00:00 PM 16.55 61.79 9.03 2.51 -5
10/20/2022 5:15:00 PM 15.92 60.656 9.05 2.58 -5
10/20/2022 5:30:00 PM 16.4 61.52 9.06 2.59 -5
10/20/2022 5:45:00 PM 16.55 61.79 9.06 2.57 -5
10/20/2022 6:00:00 PM 16.03 60.854 9.07 2.6 -5
10/20/2022 6:15:00 PM 16.03 60.854 9.07 2.63 -5
10/20/2022 6:30:00 PM 16.28 61.304 9.07 2.7 -5
10/20/2022 6:45:00 PM 16.55 61.79 9.07 2.59 -5
10/20/2022 7:00:00 PM 16.03 60.854 9.06 2.57 -5
10/20/2022 7:15:00 PM 15.79 60.422 9.06 2.59 -5
10/20/2022 7:30:00 PM 16.17 61.106 9.06 2.63 -5
10/20/2022 7:45:00 PM 16.4 61.52 9.05 2.72 -5
10/20/2022 8:00:00 PM 16.4 61.52 9.05 2.57 -5
10/20/2022 8:15:00 PM 15.66 60.188 9.03 2.59 -5
10/20/2022 8:30:00 PM 16.03 60.854 9.02 2.62 -5
10/20/2022 8:45:00 PM 16.17 61.106 9 2.67 -5
10/20/2022 9:00:00 PM 16.4 61.52 8.99 2.74 -5
10/20/2022 9:15:00 PM 15.79 60.422 8.98 2.63 -5
10/20/2022 9:30:00 PM 15.66 60.188 8.97 2.65 -5
10/20/2022 9:45:00 PM 16.03 60.854 8.96 2.62 -5
10/20/2022 10:00:00 PM 16.17 61.106 8.94 2.65 -5
10/20/2022 10:15:00 PM 16.29 61.322 8.92 2.68 -5
10/20/2022 10:30:00 PM 16.29 61.322 8.91 2.62 -5
10/20/2022 10:45:00 PM 15.79 60.422 8.9 2.61 -5
10/20/2022 11:00:00 PM 15.66 60.188 8.89 2.66 -5
10/20/2022 11:15:00 PM 15.79 60.422 8.87 2.65 -5
10/20/2022 11:30:00 PM 16.03 60.854 8.85 2.67 -5
10/20/2022 11:45:00 PM 16.17 61.106 8.83 2.66 -5
10/21/2022 12:00:00 AM 16.17 61.106 8.81 2.64 -5
10/21/2022 12:15:00 AM 16.29 61.322 8.78 2.66 -5
10/21/2022 12:30:00 AM 16.29 61.322 8.75 2.7 -5
10/21/2022 12:45:00 AM 15.41 59.738 8.72 2.7 -5
10/21/2022 1:00:00 AM 15.79 60.422 8.68 2.67 -5
10/21/2022 1:15:00 AM 15.92 60.656 8.64 2.73 -5
10/21/2022 1:30:00 AM 16.17 61.106 8.61 2.69 -5
10/21/2022 1:45:00 AM 16.17 61.106 8.57 2.7 -5
10/21/2022 2:00:00 AM 16.17 61.106 8.53 2.66 -5
10/21/2022 2:15:00 AM 16.17 61.106 8.49 2.68 -5
10/21/2022 2:30:00 AM 16.29 61.322 8.46 2.68 -5
10/21/2022 2:45:00 AM 16.29 61.322 8.43 2.72 -5
10/21/2022 3:00:00 AM 16.29 61.322 8.4 2.72 -5
10/21/2022 3:15:00 AM 16.29 61.322 8.38 2.72 -5
10/21/2022 3:30:00 AM 16.29 61.322 8.36 2.75 -5
10/21/2022 3:45:00 AM 16.28 61.304 8.35 2.72 -5
10/21/2022 4:00:00 AM 16.17 61.106 8.33 2.73 -5
10/21/2022 4:15:00 AM 16.17 61.106 8.32 2.73 -5
10/21/2022 4:30:00 AM 16.4 61.52 8.3 2.72 -5
10/21/2022 4:45:00 AM 16.29 61.322 8.29 2.73 -5
10/21/2022 5:00:00 AM 16.17 61.106 8.28 2.74 -5
10/21/2022 5:15:00 AM 16.29 61.322 8.27 2.75 -5
10/21/2022 5:30:00 AM 16.17 61.106 8.26 2.71 -5
10/21/2022 5:45:00 AM 16.17 61.106 8.25 2.74 -5
10/21/2022 6:00:00 AM 16.29 61.322 8.24 2.73 -5
10/21/2022 6:15:00 AM 16.22 61.196 8.23 2.72 -5
10/21/2022 6:30:00 AM 16.03 60.854 8.22 2.78 -5
10/21/2022 6:45:00 AM 16.03 60.854 8.21 2.71 -5
10/21/2022 7:00:00 AM 15.92 60.656 8.2 2.75 -5
10/21/2022 7:15:00 AM 15.79 60.422 8.19 2.74 -5
10/21/2022 7:30:00 AM 15.92 60.656 8.18 2.72 -5
10/21/2022 7:45:00 AM 15.79 60.422 8.18 2.75 -5
10/21/2022 8:00:00 AM 15.79 60.422 8.17 2.67 -5
10/21/2022 8:15:00 AM 15.79 60.422 8.17 2.64 -5
10/21/2022 8:30:00 AM 15.66 60.188 8.17 2.66 -5
10/21/2022 8:45:00 AM 15.66 60.188 8.17 2.62 -5
10/21/2022 9:00:00 AM 15.66 60.188 8.17 2.62 -5
10/21/2022 9:15:00 AM 15.54 59.972 8.17 2.62 -5
10/21/2022 9:30:00 AM 15.54 59.972 8.18 2.6 -5
10/21/2022 9:45:00 AM 15.54 59.972 8.19 2.61 -5
10/21/2022 10:00:00 AM 15.54 59.972 8.2 2.61 -5
10/21/2022 10:15:00 AM 15.54 59.972 8.22 2.58 -5
10/21/2022 10:30:00 AM 15.66 60.188 8.24 2.56 -5
10/21/2022 10:45:00 AM 15.79 60.422 8.27 2.53 -5
10/21/2022 11:00:00 AM 15.79 60.422 8.31 2.58 -5
10/21/2022 11:15:00 AM 15.79 60.422 8.34 2.54 -5
10/21/2022 11:30:00 AM 15.92 60.656 8.38 2.53 -5
10/21/2022 11:45:00 AM 15.92 60.656 8.4 2.5 -5
10/21/2022 12:00:00 PM 16.03 60.854 8.43 2.54 -5
10/21/2022 12:15:00 PM 16.17 61.106 8.46 2.58 -5
10/21/2022 12:30:00 PM 16.17 61.106 8.49 2.5 -5
10/21/2022 12:45:00 PM 16.29 61.322 8.53 2.53 -5
10/21/2022 1:00:00 PM 16.4 61.52 8.56 2.52 -5
10/21/2022 1:15:00 PM 16.54 61.772 8.6 2.54 -5
10/21/2022 1:30:00 PM 16.66 61.988 8.64 2.6 -5
10/21/2022 1:45:00 PM 16.29 61.322 8.67 2.52 -5
10/21/2022 2:00:00 PM 15.91 60.638 8.7 2.64 -5
10/21/2022 2:15:00 PM 16.4 61.52 8.74 2.49 -5
10/21/2022 2:30:00 PM 16.78 62.204 8.78 2.5 -5
10/21/2022 2:45:00 PM 16.78 62.204 8.82 2.54 -5
10/21/2022 3:00:00 PM 15.91 60.638 8.85 2.52 -5
10/21/2022 3:15:00 PM 16.4 61.52 8.87 2.52 -5
10/21/2022 3:30:00 PM 16.78 62.204 8.91 2.53 -5
10/21/2022 3:45:00 PM 16.92 62.456 8.94 2.51 -5
10/21/2022 4:00:00 PM 16.17 61.106 8.95 2.51 -5
10/21/2022 4:15:00 PM 16.54 61.772 8.98 2.52 -5
10/21/2022 4:30:00 PM 16.92 62.456 9 2.51 -5
10/21/2022 4:45:00 PM 16.92 62.456 9.02 2.54 -5
10/21/2022 5:00:00 PM 16.4 61.52 9.05 2.54 -5
10/21/2022 5:15:00 PM 16.78 62.204 9.06 2.53 -5
10/21/2022 5:30:00 PM 17.03 62.654 9.08 2.53 -5
10/21/2022 5:45:00 PM 16.17 61.106 9.1 2.55 -5
10/21/2022 6:00:00 PM 16.66 61.988 9.11 2.56 -5
10/21/2022 6:15:00 PM 16.92 62.456 9.11 2.56 -5
10/21/2022 6:30:00 PM 16.17 61.106 9.12 2.61 -5
10/21/2022 6:45:00 PM 16.54 61.772 9.11 2.65 -5
10/21/2022 7:00:00 PM 16.92 62.456 9.1 2.7 -5
10/21/2022 7:15:00 PM 16.54 61.772 9.09 2.66 -5
10/21/2022 7:30:00 PM 16.17 61.106 9.09 2.66 -5
10/21/2022 7:45:00 PM 16.66 61.988 9.07 2.66 -5
10/21/2022 8:00:00 PM 16.65 61.97 9.05 2.66 -5
10/21/2022 8:15:00 PM 16.03 60.854 9.03 2.69 -5
10/21/2022 8:30:00 PM 16.49 61.682 9.02 2.67 -5
10/21/2022 8:45:00 PM 16.78 62.204 9 2.67 -5
10/21/2022 9:00:00 PM 15.91 60.638 8.99 2.71 -5
10/21/2022 9:15:00 PM 16.29 61.322 8.98 2.74 -5
10/21/2022 9:30:00 PM 16.66 61.988 8.96 2.71 -5
10/21/2022 9:45:00 PM 16.17 61.106 8.94 2.73 -5
10/21/2022 10:00:00 PM 16.17 61.106 8.93 2.72 -5
10/21/2022 10:15:00 PM 16.54 61.772 8.92 2.7 -5
10/21/2022 10:30:00 PM 16.66 61.988 8.9 2.71 -5
10/21/2022 10:45:00 PM 15.92 60.656 8.88 2.71 -5
10/21/2022 11:00:00 PM 16.17 61.106 8.86 2.76 -5
10/21/2022 11:15:00 PM 16.4 61.52 8.84 2.7 -5
10/21/2022 11:30:00 PM 16.66 61.988 8.82 2.71 -5
10/21/2022 11:45:00 PM 16.28 61.304 8.81 2.67 -5
10/22/2022 12:00:00 AM 15.92 60.656 8.79 2.72 -5
10/22/2022 12:15:00 AM 16.4 61.52 8.76 2.77 -5
10/22/2022 12:30:00 AM 16.54 61.772 8.73 2.65 -5
10/22/2022 12:45:00 AM 16.55 61.79 8.7 2.64 -5
10/22/2022 1:00:00 AM 15.79 60.422 8.66 2.63 -5
10/22/2022 1:15:00 AM 16.29 61.322 8.62 2.64 -5
10/22/2022 1:30:00 AM 16.4 61.52 8.58 2.68 -5
10/22/2022 1:45:00 AM 16.55 61.79 8.54 2.61 -5
10/22/2022 2:00:00 AM 16.55 61.79 8.5 2.59 -5
10/22/2022 2:15:00 AM 15.92 60.656 8.46 2.64 -5
10/22/2022 2:30:00 AM 16.29 61.322 8.43 2.59 -5
10/22/2022 2:45:00 AM 16.4 61.52 8.39 2.62 -5
10/22/2022 3:00:00 AM 16.54 61.772 8.37 2.6 -5
10/22/2022 3:15:00 AM 16.66 61.988 8.35 2.61 -5
10/22/2022 3:30:00 AM 16.66 61.988 8.33 2.61 -5
10/22/2022 3:45:00 AM 15.79 60.422 8.31 2.6 -5
10/22/2022 4:00:00 AM 16.17 61.106 8.3 2.62 -5
10/22/2022 4:15:00 AM 16.4 61.52 8.28 2.62 -5
10/22/2022 4:30:00 AM 16.4 61.52 8.27 2.6 -5
10/22/2022 4:45:00 AM 16.51 61.718 8.26 2.64 -5
10/22/2022 5:00:00 AM 16.55 61.79 8.26 2.61 -5
10/22/2022 5:15:00 AM 16.54 61.772 8.25 2.61 -5
10/22/2022 5:30:00 AM 16.55 61.79 8.24 2.6 -5
10/22/2022 5:45:00 AM 16.55 61.79 8.24 2.68 -5
10/22/2022 6:00:00 AM 16.54 61.772 8.23 2.69 -5
10/22/2022 6:15:00 AM 16.55 61.79 8.23 2.62 -5
10/22/2022 6:30:00 AM 16.55 61.79 8.22 2.64 -5
10/22/2022 6:45:00 AM 16.54 61.772 8.22 2.64 -5
10/22/2022 7:00:00 AM 16.55 61.79 8.21 2.68 -5
10/22/2022 7:15:00 AM 16.4 61.52 8.2 2.74 -5
10/22/2022 7:30:00 AM 16.4 61.52 8.2 2.65 -5
10/22/2022 7:45:00 AM 16.55 61.79 8.19 2.66 -5
10/22/2022 8:00:00 AM 16.4 61.52 8.19 2.59 -5
10/22/2022 8:15:00 AM 16.29 61.322 8.19 2.55 -5
10/22/2022 8:30:00 AM 16.29 61.322 8.18 2.56 -5
10/22/2022 8:45:00 AM 16.17 61.106 8.18 2.62 -5
10/22/2022 9:00:00 AM 16.03 60.854 8.18 2.63 -5
10/22/2022 9:15:00 AM 16.17 61.106 8.18 2.59 -5
10/22/2022 9:30:00 AM 16.17 61.106 8.18 2.67 -5
10/22/2022 9:45:00 AM 16.17 61.106 8.19 2.8 -5
10/22/2022 10:00:00 AM 16.29 61.322 8.2 2.72 -5
10/22/2022 10:15:00 AM 16.29 61.322 8.21 2.7 -5
10/22/2022 10:30:00 AM 16.29 61.322 8.23 2.63 -5
10/22/2022 10:45:00 AM 16.4 61.52 8.26 2.58 -5
10/22/2022 11:00:00 AM 16.55 61.79 8.29 2.55 -5
10/22/2022 11:15:00 AM 16.54 61.772 8.32 2.54 -5
10/22/2022 11:30:00 AM 16.66 61.988 8.35 2.55 -5
10/22/2022 11:45:00 AM 16.73 62.114 8.37 2.64 -5
10/22/2022 12:00:00 PM 16.66 61.988 8.4 2.52 -5
10/22/2022 12:15:00 PM 15.91 60.638 8.43 2.54 -5
10/22/2022 12:30:00 PM 16.28 61.304 8.45 2.55 -5
10/22/2022 12:45:00 PM 16.54 61.772 8.5 2.57 -5
10/22/2022 1:00:00 PM 16.78 62.204 8.54 2.56 -5
10/22/2022 1:15:00 PM 16.78 62.204 8.57 2.55 -5
10/22/2022 1:30:00 PM 16.4 61.52 8.61 2.53 -5
10/22/2022 1:45:00 PM 16.78 62.204 8.64 2.53 -5
10/22/2022 2:00:00 PM 17.16 62.888 8.68 2.72 -5
10/22/2022 2:15:00 PM 16.4 61.52 8.71 2.69 -5
10/22/2022 2:30:00 PM 16.78 62.204 8.76 2.6 -5
10/22/2022 2:45:00 PM 17.16 62.888 8.79 2.55 -5
10/22/2022 3:00:00 PM 16.92 62.456 8.82 2.54 -5
10/22/2022 3:15:00 PM 16.78 62.204 8.86 2.54 -5
10/22/2022 3:30:00 PM 17.29 63.122 8.88 2.5 -5
10/22/2022 3:45:00 PM 17.03 62.654 8.92 2.45 -5
10/22/2022 4:00:00 PM 16.78 62.204 8.95 2.5 -5
10/22/2022 4:15:00 PM 17.29 63.122 8.96 2.57 -5
10/22/2022 4:30:00 PM 16.92 62.456 8.98 2.48 -5
10/22/2022 4:45:00 PM 17.03 62.654 9.01 2.53 -5
10/22/2022 5:00:00 PM 17.53 63.554 9.02 2.51 -5
10/22/2022 5:15:00 PM 16.78 62.204 9.04 2.49 -5
10/22/2022 5:30:00 PM 17.29 63.122 9.06 2.5 -5
10/22/2022 5:45:00 PM 17.16 62.888 9.07 2.51 -5
10/22/2022 6:00:00 PM 16.92 62.456 9.08 2.53 -5
10/22/2022 6:15:00 PM 17.41 63.338 9.08 2.52 -5
10/22/2022 6:30:00 PM 16.66 61.988 9.09 2.54 -5
10/22/2022 6:45:00 PM 17.03 62.654 9.1 2.56 -5
10/22/2022 7:00:00 PM 17.53 63.554 9.09 2.52 -5
10/22/2022 7:15:00 PM 16.66 61.988 9.08 2.56 -5
10/22/2022 7:30:00 PM 17.03 62.654 9.08 2.55 -5
10/22/2022 7:45:00 PM 17.41 63.338 9.08 2.54 -5
10/22/2022 8:00:00 PM 16.54 61.772 9.07 2.59 -5
10/22/2022 8:15:00 PM 16.92 62.456 9.05 2.69 -5
10/22/2022 8:30:00 PM 17.29 63.122 9.03 2.56 -5
10/22/2022 8:45:00 PM 16.54 61.772 9.02 2.55 -5
10/22/2022 9:00:00 PM 16.92 62.456 9.01 2.57 -5
10/22/2022 9:15:00 PM 17.29 63.122 9 2.57 -5
10/22/2022 9:30:00 PM 16.4 61.52 8.98 2.58 -5
10/22/2022 9:45:00 PM 16.92 62.456 8.97 2.58 -5
10/22/2022 10:00:00 PM 17.16 62.888 8.97 2.57 -5
10/22/2022 10:15:00 PM 16.29 61.322 8.95 2.54 -5
10/22/2022 10:30:00 PM 16.65 61.97 8.94 2.64 -5
10/22/2022 10:45:00 PM 17.03 62.654 8.92 2.58 -5
10/22/2022 11:00:00 PM 17.03 62.654 8.9 2.56 -5
10/22/2022 11:15:00 PM 16.4 61.52 8.88 2.62 -5
10/22/2022 11:30:00 PM 16.78 62.204 8.86 2.58 -5
10/22/2022 11:45:00 PM 17.03 62.654 8.83 2.76 -5
10/23/2022 12:00:00 AM 16.29 61.322 8.82 2.67 -5
10/23/2022 12:15:00 AM 16.66 61.988 8.79 2.67 -5
10/23/2022 12:30:00 AM 16.92 62.456 8.77 2.72 -5
10/23/2022 12:45:00 AM 17.16 62.888 8.74 2.93 -5
10/23/2022 1:00:00 AM 16.29 61.322 8.7 2.77 -5
10/23/2022 1:15:00 AM 16.78 62.204 8.67 2.71 -5
10/23/2022 1:30:00 AM 17.03 62.654 8.63 2.7 -5
10/23/2022 1:45:00 AM 16.4 61.52 8.6 2.64 -5
10/23/2022 2:00:00 AM 16.54 61.772 8.56 2.67 -5
10/23/2022 2:15:00 AM 16.92 62.456 8.51 2.8 -5
10/23/2022 2:30:00 AM 17.16 62.888 8.47 2.67 -5
10/23/2022 2:45:00 AM 16.29 61.322 8.44 2.7 -5
10/23/2022 3:00:00 AM 16.54 61.772 8.4 2.76 -5
10/23/2022 3:15:00 AM 16.92 62.456 8.37 2.7 -5
10/23/2022 3:30:00 AM 17.16 62.888 8.35 2.89 -5
10/23/2022 3:45:00 AM 17.03 62.654 8.32 2.7 -5
10/23/2022 4:00:00 AM 16.4 61.52 8.3 2.71 -5
10/23/2022 4:15:00 AM 16.78 62.204 8.29 2.73 -5
10/23/2022 4:30:00 AM 16.92 62.456 8.27 2.73 -5
10/23/2022 4:45:00 AM 17.16 62.888 8.26 2.74 -5
10/23/2022 5:00:00 AM 16.4 61.52 8.25 2.71 -5
10/23/2022 5:15:00 AM 16.54 61.772 8.24 2.72 -5
10/23/2022 5:30:00 AM 16.78 62.204 8.23 2.73 -5
10/23/2022 5:45:00 AM 16.92 62.456 8.22 2.73 -5
10/23/2022 6:00:00 AM 17.03 62.654 8.22 2.66 -5
10/23/2022 6:15:00 AM 17.03 62.654 8.21 2.68 -5
10/23/2022 6:30:00 AM 16.92 62.456 8.2 2.7 -5
10/23/2022 6:45:00 AM 16.92 62.456 8.19 2.68 -5
10/23/2022 7:00:00 AM 16.92 62.456 8.19 2.69 -5
10/23/2022 7:15:00 AM 16.66 61.988 8.18 2.66 -5
10/23/2022 7:30:00 AM 16.78 62.204 8.18 2.67 -5
10/23/2022 7:45:00 AM 16.66 61.988 8.17 2.69 -5
10/23/2022 8:00:00 AM 16.66 61.988 8.16 2.69 -5
10/23/2022 8:15:00 AM 16.66 61.988 8.16 2.63 -5
10/23/2022 8:30:00 AM 16.66 61.988 8.16 2.64 -5
10/23/2022 8:45:00 AM 16.66 61.988 8.15 2.65 -5
10/23/2022 9:00:00 AM 16.55 61.79 8.15 2.62 -5
10/23/2022 9:15:00 AM 16.55 61.79 8.15 2.67 -5
10/23/2022 9:30:00 AM 16.55 61.79 8.16 2.6 -5
10/23/2022 9:45:00 AM 16.54 61.772 8.16 2.61 -5
10/23/2022 10:00:00 AM 16.4 61.52 8.17 2.58 -5
10/23/2022 10:15:00 AM 16.54 61.772 8.18 2.58 -5
10/23/2022 10:30:00 AM 16.55 61.79 8.2 2.61 -5
10/23/2022 10:45:00 AM 16.54 61.772 8.21 2.62 -5
10/23/2022 11:00:00 AM 16.66 61.988 8.23 2.81 -5
10/23/2022 11:15:00 AM 16.66 61.988 8.27 2.87 -5
10/23/2022 11:30:00 AM 16.66 61.988 8.3 2.69 -5
10/23/2022 11:45:00 AM 16.66 61.988 8.32 2.6 -5
10/23/2022 12:00:00 PM 16.78 62.204 8.36 2.57 -5
10/23/2022 12:15:00 PM 16.78 62.204 8.39 2.56 -5
10/23/2022 12:30:00 PM 16.92 62.456 8.41 2.56 -5
10/23/2022 12:45:00 PM 16.92 62.456 8.43 2.51 -5
10/23/2022 1:00:00 PM 16.92 62.456 8.45 2.51 -5
10/23/2022 1:15:00 PM 17.03 62.654 8.49 2.55 -5
10/23/2022 1:30:00 PM 17.03 62.654 8.52 2.52 -5
10/23/2022 1:45:00 PM 17.03 62.654 8.55 2.6 -5
10/23/2022 2:00:00 PM 17.16 62.888 8.58 2.59 -5
10/23/2022 2:15:00 PM 17.29 63.122 8.6 2.61 -5
10/23/2022 2:30:00 PM 16.4 61.52 8.63 2.6 -5
10/23/2022 2:45:00 PM 16.66 61.988 8.66 2.6 -5
10/23/2022 3:00:00 PM 17.03 62.654 8.7 2.61 -5
10/23/2022 3:15:00 PM 17.16 62.888 8.74 2.58 -5
10/23/2022 3:30:00 PM 17.16 62.888 8.75 2.55 -5
10/23/2022 3:45:00 PM 17.03 62.654 8.76 2.53 -5
10/23/2022 4:00:00 PM 16.54 61.772 8.78 2.55 -5
10/23/2022 4:15:00 PM 17.03 62.654 8.8 2.57 -5
10/23/2022 4:30:00 PM 17.16 62.888 8.83 2.62 -5
10/23/2022 4:45:00 PM 16.92 62.456 8.87 2.55 -5
10/23/2022 5:00:00 PM 16.65 61.97 8.89 2.57 -5
10/23/2022 5:15:00 PM 17.16 62.888 8.89 2.57 -5
10/23/2022 5:30:00 PM 17.29 63.122 8.9 2.62 -5
10/23/2022 5:45:00 PM 16.54 61.772 8.93 2.52 -5
10/23/2022 6:00:00 PM 16.92 62.456 8.94 2.55 -5
10/23/2022 6:15:00 PM 17.16 62.888 8.94 2.56 -5
10/23/2022 6:30:00 PM 17.03 62.654 8.94 2.51 -5
10/23/2022 6:45:00 PM 16.66 61.988 8.92 2.67 -5
10/23/2022 7:00:00 PM 17.03 62.654 8.91 2.61 -5
10/23/2022 7:15:00 PM 17.35 63.23 8.91 2.58 -5
10/23/2022 7:30:00 PM 16.4 61.52 8.92 2.6 -5
10/23/2022 7:45:00 PM 16.92 62.456 8.91 2.66 -5
10/23/2022 8:00:00 PM 17.29 63.122 8.9 2.84 -5
10/23/2022 8:15:00 PM 16.6 61.88 8.89 2.68 -5
10/23/2022 8:30:00 PM 16.78 62.204 8.89 2.7 -5
10/23/2022 8:45:00 PM 17.29 63.122 8.87 2.76 -5
10/23/2022 9:00:00 PM 16.78 62.204 8.86 2.73 -5
10/23/2022 9:15:00 PM 16.66 61.988 8.85 3.01 -5
10/23/2022 9:30:00 PM 17.16 62.888 8.84 2.74 -5
10/23/2022 9:45:00 PM 16.78 62.204 8.83 2.73 -5
10/23/2022 10:00:00 PM 16.78 62.204 8.83 2.73 -5
10/23/2022 10:15:00 PM 17.29 63.122 8.82 2.77 -5
10/23/2022 10:30:00 PM 16.54 61.772 8.8 2.74 -5
10/23/2022 10:45:00 PM 16.78 62.204 8.78 2.75 -5
10/23/2022 11:00:00 PM 17.16 62.888 8.76 2.76 -5
10/23/2022 11:15:00 PM 16.4 61.52 8.74 2.73 -5
10/23/2022 11:30:00 PM 16.92 62.456 8.73 2.75 -5
10/23/2022 11:45:00 PM 17.29 63.122 8.7 2.73 -5
10/24/2022 12:00:00 AM 16.54 61.772 8.68 2.75 -5
10/24/2022 12:15:00 AM 17.03 62.654 8.65 2.76 -5
10/24/2022 12:30:00 AM 17.29 63.122 8.62 2.69 -5
10/24/2022 12:45:00 AM 16.54 61.772 8.59 2.68 -5
10/24/2022 1:00:00 AM 17.16 62.888 8.55 2.7 -5
10/24/2022 1:15:00 AM 17.03 62.654 8.52 2.68 -5
10/24/2022 1:30:00 AM 16.66 61.988 8.48 2.7 -5
10/24/2022 1:45:00 AM 17.16 62.888 8.44 2.74 -5
10/24/2022 2:00:00 AM 16.78 62.204 8.41 2.7 -5
10/24/2022 2:15:00 AM 16.78 62.204 8.38 2.71 -5
10/24/2022 2:30:00 AM 17.29 63.122 8.35 2.71 -5
10/24/2022 2:45:00 AM 16.92 62.456 8.33 2.7 -5
10/24/2022 3:00:00 AM 16.92 62.456 8.31 2.73 -5
10/24/2022 3:15:00 AM 17.41 63.338 8.29 2.68 -5
10/24/2022 3:30:00 AM 16.66 61.988 8.28 2.71 -5
10/24/2022 3:45:00 AM 17.03 62.654 8.26 2.77 -5
10/24/2022 4:00:00 AM 17.53 63.554 8.25 2.7 -5
10/24/2022 4:15:00 AM 16.66 61.988 8.24 2.75 -5
10/24/2022 4:30:00 AM 17.16 62.888 8.23 2.77 -5
10/24/2022 4:45:00 AM 17.16 62.888 8.23 2.74 -5
10/24/2022 5:00:00 AM 16.78 62.204 8.22 2.72 -5
10/24/2022 5:15:00 AM 17.41 63.338 8.21 2.79 -5
10/24/2022 5:30:00 AM 16.92 62.456 8.21 2.83 -5
10/24/2022 5:45:00 AM 16.92 62.456 8.21 2.78 -5
10/24/2022 6:00:00 AM 17.41 63.338 8.2 2.77 -5
10/24/2022 6:15:00 AM 16.78 62.204 8.19 2.79 -5
10/24/2022 6:30:00 AM 16.92 62.456 8.19 2.8 -5
10/24/2022 6:45:00 AM 17.41 63.338 8.18 2.89 -5
10/24/2022 7:00:00 AM 16.78 62.204 8.17 2.78 -5
10/24/2022 7:15:00 AM 16.92 62.456 8.17 2.8 -5
10/24/2022 7:30:00 AM 17.16 62.888 8.16 2.22 -5
10/24/2022 7:45:00 AM 16.66 61.988 8.16 2.23 -5
10/24/2022 8:00:00 AM 16.66 61.988 8.15 2.22 -5
10/24/2022 8:15:00 AM 17.16 62.888 8.15 2.1 -5
10/24/2022 8:30:00 AM 16.4 61.52 8.15 2.1 -5
10/24/2022 8:45:00 AM 16.66 61.988 8.15 2.13 -5
10/24/2022 9:00:00 AM 16.92 62.456 8.15 2.07 -5
10/24/2022 9:15:00 AM 16.55 61.79 8.16 2.04 -5
10/24/2022 9:30:00 AM 16.54 61.772 8.16 2.03 -5
10/24/2022 9:45:00 AM 17.03 62.654 8.16 2.03 -5
10/24/2022 10:00:00 AM 17.16 62.888 8.17 2.11 -5
10/24/2022 10:15:00 AM 16.4 61.52 8.18 2.03 -5
10/24/2022 10:30:00 AM 16.78 62.204 8.19 1.99 -5
10/24/2022 10:45:00 AM 17.16 62.888 8.21 2.01 -5
10/24/2022 11:00:00 AM 16.66 61.988 8.24 1.94 -5
10/24/2022 11:15:00 AM 16.78 62.204 8.26 2.06 -5
10/24/2022 11:30:00 AM 17.16 62.888 8.29 1.97 -5
10/24/2022 11:45:00 AM 17.41 63.338 8.32 1.93 -5
10/24/2022 12:00:00 PM 16.54 61.772 8.34 2.01 -5
10/24/2022 12:15:00 PM 16.92 62.456 8.34 2.04 -5
10/24/2022 12:30:00 PM 17.29 63.122 8.35 2.08 -5
10/24/2022 12:45:00 PM 16.92 62.456 8.38 2.03 -5
10/24/2022 1:00:00 PM 16.92 62.456 8.42 2.17 -5
10/24/2022 1:15:00 PM 17.29 63.122 8.46 2.03 -5
10/24/2022 1:30:00 PM 17.16 62.888 8.49 2.08 -5
10/24/2022 1:45:00 PM 16.92 62.456 8.53 2.2 -5
10/24/2022 2:00:00 PM 17.29 63.122 8.55 2.06 -5
10/24/2022 2:15:00 PM 17.41 63.338 8.58 2 -5
10/24/2022 2:30:00 PM 16.92 62.456 8.61 1.94 -5
10/24/2022 2:45:00 PM 17.41 63.338 8.64 1.98 -5
10/24/2022 3:00:00 PM 17.41 63.338 8.65 1.97 -5
10/24/2022 3:15:00 PM 17.03 62.654 8.66 1.96 -5
10/24/2022 3:30:00 PM 17.41 63.338 8.66 1.99 -5
10/24/2022 3:45:00 PM 17.53 63.554 8.68 1.97 -5
10/24/2022 4:00:00 PM 16.92 62.456 8.69 1.95 -5
10/24/2022 4:15:00 PM 17.41 63.338 8.7 1.98 -5
10/24/2022 4:30:00 PM 17.29 63.122 8.72 1.96 -5
10/24/2022 4:45:00 PM 17.16 62.888 8.75 1.95 -5
10/24/2022 5:00:00 PM 17.53 63.554 8.77 1.99 -5
10/24/2022 5:15:00 PM 17.41 63.338 8.79 1.96 -5
10/24/2022 5:30:00 PM 17.03 62.654 8.8 1.95 -5
10/24/2022 5:45:00 PM 17.53 63.554 8.8 1.98 -5
10/24/2022 6:00:00 PM 17.29 63.122 8.8 1.95 -5
10/24/2022 6:15:00 PM 17.16 62.888 8.8 2 -5
10/24/2022 6:30:00 PM 17.53 63.554 8.8 1.98 -5
10/24/2022 6:45:00 PM 17.03 62.654 8.8 1.98 -5
10/24/2022 7:00:00 PM 17.16 62.888 8.81 2.02 -5
10/24/2022 7:15:00 PM 17.53 63.554 8.81 1.98 -5
10/24/2022 7:30:00 PM 17.03 62.654 8.82 2 -5
10/24/2022 7:45:00 PM 17.16 62.888 8.82 2.04 -5
10/24/2022 8:00:00 PM 17.53 63.554 8.82 2.07 -5
10/24/2022 8:15:00 PM 17.03 62.654 8.82 2.09 -5
10/24/2022 8:30:00 PM 17.29 63.122 8.81 2.08 -5
10/24/2022 8:45:00 PM 17.66 63.788 8.81 2.14 -5
10/24/2022 9:00:00 PM 17.03 62.654 8.8 2.11 -5
10/24/2022 9:15:00 PM 17.29 63.122 8.79 2.14 -5
10/24/2022 9:30:00 PM 17.79 64.022 8.78 2.13 -5
10/24/2022 9:45:00 PM 16.92 62.456 8.77 2.15 -5
10/24/2022 10:00:00 PM 17.29 63.122 8.76 2.21 -5
10/24/2022 10:15:00 PM 17.53 63.554 8.75 2.14 -5
10/24/2022 10:30:00 PM 17.03 62.654 8.73 2.17 -5
10/24/2022 10:45:00 PM 17.41 63.338 8.71 2.2 -5
10/24/2022 11:00:00 PM 17.16 62.888 8.69 2.22 -5
10/24/2022 11:15:00 PM 17.03 62.654 8.67 2.29 -5
10/24/2022 11:30:00 PM 17.41 63.338 8.66 2.19 -5
10/24/2022 11:45:00 PM 17.16 62.888 8.63 2.18 -5
10/25/2022 12:00:00 AM 17.29 63.122 8.61 2.21 -5
10/25/2022 12:15:00 AM 17.53 63.554 8.59 2.21 -5
10/25/2022 12:30:00 AM 17.03 62.654 8.56 2.37 -5
10/25/2022 12:45:00 AM 17.41 63.338 8.53 2.26 -5
10/25/2022 1:00:00 AM 17.41 63.338 8.5 2.27 -5
10/25/2022 1:15:00 AM 17.16 62.888 8.47 2.29 -5
10/25/2022 1:30:00 AM 17.66 63.788 8.44 2.28 -5
10/25/2022 1:45:00 AM 17.16 62.888 8.41 2.32 -5
10/25/2022 2:00:00 AM 17.29 63.122 8.39 2.33 -5
10/25/2022 2:15:00 AM 17.79 64.022 8.36 2.31 -5
10/25/2022 2:30:00 AM 17.03 62.654 8.33 2.29 -5
10/25/2022 2:45:00 AM 17.53 63.554 8.31 2.32 -5
10/25/2022 3:00:00 AM 17.41 63.338 8.29 2.33 -5
10/25/2022 3:15:00 AM 17.29 63.122 8.27 2.36 -5
10/25/2022 3:30:00 AM 17.66 63.788 8.26 2.33 -5
10/25/2022 3:45:00 AM 17.16 62.888 8.24 2.36 -5
10/25/2022 4:00:00 AM 17.29 63.122 8.23 2.38 -5
10/25/2022 4:15:00 AM 17.66 63.788 8.23 2.35 -5
10/25/2022 4:30:00 AM 17.16 62.888 8.22 2.38 -5
10/25/2022 4:45:00 AM 17.53 63.554 8.21 2.42 -5
10/25/2022 5:00:00 AM 17.41 63.338 8.2 2.45 -5
10/25/2022 5:15:00 AM 17.29 63.122 8.2 2.4 -5
10/25/2022 5:30:00 AM 17.79 64.022 8.19 2.43 -5
10/25/2022 5:45:00 AM 17.16 62.888 8.18 2.41 -5
10/25/2022 6:00:00 AM 17.41 63.338 8.18 2.4 -5
10/25/2022 6:15:00 AM 17.41 63.338 8.17 2.43 -5
10/25/2022 6:30:00 AM 17.16 62.888 8.17 2.39 -5
10/25/2022 6:45:00 AM 17.79 64.022 8.16 2.43 -5
10/25/2022 7:00:00 AM 17.16 62.888 8.16 2.43 -5
10/25/2022 7:15:00 AM 17.41 63.338 8.15 2.44 -5
10/25/2022 7:30:00 AM 17.53 63.554 8.15 2.72 -5
10/25/2022 7:45:00 AM 17.16 62.888 8.14 2.51 -5
10/25/2022 8:00:00 AM 17.53 63.554 8.14 2.41 -5
10/25/2022 8:15:00 AM 17.29 63.122 8.13 2.39 -5
10/25/2022 8:30:00 AM 17.16 62.888 8.13 2.39 -5
10/25/2022 8:45:00 AM 17.53 63.554 8.12 2.36 -5
10/25/2022 9:00:00 AM 17.16 62.888 8.12 2.33 -5
10/25/2022 9:15:00 AM 17.16 62.888 8.12 2.35 -5
10/25/2022 9:30:00 AM 17.53 63.554 8.12 2.37 -5
10/25/2022 9:45:00 AM 17.03 62.654 8.13 2.34 -5
10/25/2022 10:00:00 AM 17.03 62.654 8.13 2.39 -5
10/25/2022 10:15:00 AM 17.53 63.554 8.14 2.36 -5
10/25/2022 10:30:00 AM 16.92 62.456 8.15 2.32 -5
10/25/2022 10:45:00 AM 17.29 63.122 8.17 2.29 -5
10/25/2022 11:00:00 AM 17.66 63.788 8.19 2.28 -5
10/25/2022 11:15:00 AM 17.03 62.654 8.21 2.26 -5
10/25/2022 11:30:00 AM 17.41 63.338 8.23 2.3 -5
10/25/2022 11:45:00 AM 17.53 63.554 8.26 2.26 -5
10/25/2022 12:00:00 PM 17.03 62.654 8.29 2.26 -5
10/25/2022 12:15:00 PM 17.53 63.554 8.31 2.3 -5
10/25/2022 12:30:00 PM 17.66 63.788 8.34 2.23 -5
10/25/2022 12:45:00 PM 17.16 62.888 8.36 2.25 -5
10/25/2022 1:00:00 PM 17.53 63.554 8.38 2.26 -5
10/25/2022 1:15:00 PM 17.53 63.554 8.41 2.26 -5
10/25/2022 1:30:00 PM 17.41 63.338 8.44 2.23 -5
10/25/2022 1:45:00 PM 17.79 64.022 8.47 2.22 -5
10/25/2022 2:00:00 PM 17.53 63.554 8.51 2.32 -5
10/25/2022 2:15:00 PM 17.53 63.554 8.55 2.22 -5
10/25/2022 2:30:00 PM 17.79 64.022 8.57 2.24 -5
10/25/2022 2:45:00 PM 17.53 63.554 8.59 2.22 -5
10/25/2022 3:00:00 PM 17.53 63.554 8.61 2.2 -5
10/25/2022 3:15:00 PM 18.03 64.454 8.63 2.24 -5
10/25/2022 3:30:00 PM 17.41 63.338 8.64 2.25 -5
10/25/2022 3:45:00 PM 17.66 63.788 8.67 2.29 -5
10/25/2022 4:00:00 PM 18.15 64.67 8.69 2.3 -5
10/25/2022 4:15:00 PM 17.53 63.554 8.7 2.25 -5
10/25/2022 4:30:00 PM 17.9 64.22 8.72 2.24 -5
10/25/2022 4:45:00 PM 17.9 64.22 8.73 2.21 -5
10/25/2022 5:00:00 PM 17.79 64.022 8.73 2.27 -5
10/25/2022 5:15:00 PM 18.03 64.454 8.76 2.21 -5
10/25/2022 5:30:00 PM 17.66 63.788 8.76 2.24 -5
10/25/2022 5:45:00 PM 17.9 64.22 8.76 2.22 -5
10/25/2022 6:00:00 PM 18.26 64.868 8.79 2.24 -5
10/25/2022 6:15:00 PM 17.53 63.554 8.79 2.28 -5
10/25/2022 6:30:00 PM 17.9 64.22 8.8 2.32 -5
10/25/2022 6:45:00 PM 18.15 64.67 8.8 2.26 -5
10/25/2022 7:00:00 PM 17.66 63.788 8.81 2.33 -5
10/25/2022 7:15:00 PM 18.03 64.454 8.81 2.34 -5
10/25/2022 7:30:00 PM 17.9 64.22 8.8 2.35 -5
10/25/2022 7:45:00 PM 17.79 64.022 8.8 2.36 -5
10/25/2022 8:00:00 PM 18.14 64.652 8.79 2.38 -5
10/25/2022 8:15:00 PM 17.66 63.788 8.78 2.38 -5
10/25/2022 8:30:00 PM 17.9 64.22 8.77 2.38 -5
10/25/2022 8:45:00 PM 18.15 64.67 8.76 2.4 -5
10/25/2022 9:00:00 PM 17.66 63.788 8.75 2.42 -5
10/25/2022 9:15:00 PM 18.03 64.454 8.73 2.41 -5
10/25/2022 9:30:00 PM 18.03 64.454 8.72 2.47 -5
10/25/2022 9:45:00 PM 17.79 64.022 8.7 2.44 -5
10/25/2022 10:00:00 PM 18.15 64.67 8.69 2.44 -5
10/25/2022 10:15:00 PM 17.79 64.022 8.67 2.45 -5
10/25/2022 10:30:00 PM 17.9 64.22 8.64 2.46 -5
10/25/2022 10:45:00 PM 18.26 64.868 8.62 2.51 -5
10/25/2022 11:00:00 PM 17.66 63.788 8.59 2.48 -5
10/25/2022 11:15:00 PM 18.03 64.454 8.56 2.47 -5
10/25/2022 11:30:00 PM 18.09 64.562 8.53 2.53 -5
10/25/2022 11:45:00 PM 17.79 64.022 8.5 2.55 -5
10/26/2022 12:00:00 AM 18.26 64.868 8.47 2.66 -5
10/26/2022 12:15:00 AM 17.79 64.022 8.45 2.54 -5
10/26/2022 12:30:00 AM 18.03 64.454 8.42 2.57 -5
10/26/2022 12:45:00 AM 18.15 64.67 8.39 2.6 -5
10/26/2022 1:00:00 AM 17.79 64.022 8.36 2.6 -5
10/26/2022 1:15:00 AM 18.15 64.67 8.33 2.81 -5
10/26/2022 1:30:00 AM 17.9 64.22 8.31 2.55 -5
10/26/2022 1:45:00 AM 17.9 64.22 8.28 2.62 -5
10/26/2022 2:00:00 AM 18.26 64.868 8.25 2.55 -5
10/26/2022 2:15:00 AM 17.79 64.022 8.23 2.57 -5
10/26/2022 2:30:00 AM 18.26 64.868 8.21 2.94 -5
10/26/2022 2:45:00 AM 18.03 64.454 8.19 2.55 -5
10/26/2022 3:00:00 AM 18.03 64.454 8.18 2.61 -5
10/26/2022 3:15:00 AM 18.41 65.138 8.16 2.61 -5
10/26/2022 3:30:00 AM 17.79 64.022 8.15 2.63 -5
10/26/2022 3:45:00 AM 18.15 64.67 8.14 2.7 -5
10/26/2022 4:00:00 AM 18.26 64.868 8.14 2.61 -5
10/26/2022 4:15:00 AM 17.9 64.22 8.13 2.59 -5
10/26/2022 4:30:00 AM 18.41 65.138 8.13 2.64 -5
10/26/2022 4:45:00 AM 17.9 64.22 8.12 2.6 -5
10/26/2022 5:00:00 AM 18.03 64.454 8.12 2.61 -5
10/26/2022 5:15:00 AM 18.26 64.868 8.11 2.65 -5
10/26/2022 5:30:00 AM 17.79 64.022 8.11 2.64 -5
10/26/2022 5:45:00 AM 18.26 64.868 8.1 2.66 -5
10/26/2022 6:00:00 AM 18.03 64.454 8.1 2.63 -5
10/26/2022 6:15:00 AM 18.03 64.454 8.09 2.63 -5
10/26/2022 6:30:00 AM 18.41 65.138 8.09 2.67 -5
10/26/2022 6:45:00 AM 17.79 64.022 8.08 2.65 -5
10/26/2022 7:00:00 AM 18.14 64.652 8.08 2.65 -5
10/26/2022 7:15:00 AM 18.41 65.138 8.07 2.71 -5
10/26/2022 7:30:00 AM 18.03 64.454 8.07 2.75 -5
10/26/2022 7:45:00 AM 18.41 65.138 8.06 2.76 -5
10/26/2022 8:00:00 AM 18.03 64.454 8.06 2.74 -5
10/26/2022 8:15:00 AM 18.03 64.454 8.06 2.66 -5
10/26/2022 8:30:00 AM 18.52 65.336 8.06 2.63 -5
10/26/2022 8:45:00 AM 17.79 64.022 8.05 2.58 -5
10/26/2022 9:00:00 AM 18.15 64.67 8.05 2.57 -5
10/26/2022 9:15:00 AM 18.26 64.868 8.05 2.55 -5
10/26/2022 9:30:00 AM 17.9 64.22 8.06 2.57 -5
10/26/2022 9:45:00 AM 18.26 64.868 8.06 2.54 -5
10/26/2022 10:00:00 AM 18.03 64.454 8.07 2.52 -5
10/26/2022 10:15:00 AM 18.03 64.454 8.08 2.53 -5
10/26/2022 10:30:00 AM 18.41 65.138 8.09 2.47 -5
10/26/2022 10:45:00 AM 17.9 64.22 8.11 2.49 -5
10/26/2022 11:00:00 AM 18.15 64.67 8.12 2.45 -5
10/26/2022 11:15:00 AM 18.52 65.336 8.12 2.49 -5
10/26/2022 11:30:00 AM 17.9 64.22 8.12 2.44 -5
10/26/2022 11:45:00 AM 18.14 64.652 8.14 2.44 -5
10/26/2022 12:00:00 PM 18.41 65.138 8.15 2.49 -5
10/26/2022 12:15:00 PM 17.9 64.22 8.17 2.49 -5
10/26/2022 12:30:00 PM 18.26 64.868 8.2 2.47 -5
10/26/2022 12:45:00 PM 18.52 65.336 8.24 2.44 -5
10/26/2022 1:00:00 PM 17.9 64.22 8.26 2.42 -5
10/26/2022 1:15:00 PM 18.26 64.868 8.28 2.41 -5
10/26/2022 1:30:00 PM 18.26 64.868 8.29 2.47 -5
10/26/2022 1:45:00 PM 17.9 64.22 8.32 2.5 -5
10/26/2022 2:00:00 PM 18.41 65.138 8.35 2.54 -5
10/26/2022 2:15:00 PM 18.14 64.652 8.39 2.51 -5
10/26/2022 2:30:00 PM 18.14 64.652 8.42 2.49 -5
10/26/2022 2:45:00 PM 18.52 65.336 8.45 2.49 -5
10/26/2022 3:00:00 PM 18.03 64.454 8.48 2.45 -5
10/26/2022 3:15:00 PM 18.26 64.868 8.5 2.58 -5
10/26/2022 3:30:00 PM 18.63 65.534 8.52 2.48 -5
10/26/2022 3:45:00 PM 18.03 64.454 8.54 2.5 -5
10/26/2022 4:00:00 PM 18.52 65.336 8.57 2.48 -5
10/26/2022 4:15:00 PM 18.41 65.138 8.6 2.42 -5
10/26/2022 4:30:00 PM 18.14 64.652 8.63 2.59 -5
10/26/2022 4:45:00 PM 18.52 65.336 8.65 2.45 -5
10/26/2022 5:00:00 PM 18.15 64.67 8.65 2.44 -5
10/26/2022 5:15:00 PM 18.26 64.868 8.65 2.46 -5
10/26/2022 5:30:00 PM 18.63 65.534 8.66 2.43 -5
10/26/2022 5:45:00 PM 18.03 64.454 8.67 2.6 -5
10/26/2022 6:00:00 PM 18.41 65.138 8.71 2.51 -5
10/26/2022 6:15:00 PM 18.78 65.804 8.73 2.45 -5
10/26/2022 6:30:00 PM 18.14 64.652 8.75 2.5 -5
10/26/2022 6:45:00 PM 18.52 65.336 8.76 2.49 -5
10/26/2022 7:00:00 PM 18.41 65.138 8.76 2.66 -5
10/26/2022 7:15:00 PM 18.15 64.67 8.75 2.53 -5
10/26/2022 7:30:00 PM 18.41 65.138 8.73 2.52 -5
10/26/2022 7:45:00 PM 18.14 64.652 8.71 2.57 -5
10/26/2022 8:00:00 PM 18.26 64.868 8.7 2.55 -5
10/26/2022 8:15:00 PM 18.63 65.534 8.69 2.57 -5
10/26/2022 8:30:00 PM 17.9 64.22 8.7 2.58 -5
10/26/2022 8:45:00 PM 18.41 65.138 8.69 2.6 -5
10/26/2022 9:00:00 PM 18.52 65.336 8.69 2.57 -5
10/26/2022 9:15:00 PM 17.9 64.22 8.68 2.6 -5
10/26/2022 9:30:00 PM 18.26 64.868 8.67 2.64 -5
10/26/2022 9:45:00 PM 18.63 65.534 8.65 2.66 -5
10/26/2022 10:00:00 PM 17.9 64.22 8.63 2.76 -5
10/26/2022 10:15:00 PM 18.26 64.868 8.6 2.77 -5
10/26/2022 10:30:00 PM 18.52 65.336 8.58 2.69 -5
10/26/2022 10:45:00 PM 17.66 63.788 8.57 2.65 -5
10/26/2022 11:00:00 PM 18.26 64.868 8.55 2.64 -5
10/26/2022 11:15:00 PM 18.41 65.138 8.54 2.78 -5
10/26/2022 11:30:00 PM 17.9 64.22 8.53 2.8 -5
10/26/2022 11:45:00 PM 18.15 64.67 8.51 2.78 -5
10/27/2022 12:00:00 AM 18.03 64.454 8.5 2.78 -5
10/27/2022 12:15:00 AM 17.9 64.22 8.47 2.83 -5
10/27/2022 12:30:00 AM 18.26 64.868 8.45 2.83 -5
10/27/2022 12:45:00 AM 18.26 64.868 8.42 2.82 -5
10/27/2022 1:00:00 AM 17.79 64.022 8.39 2.79 -5
10/27/2022 1:15:00 AM 18.03 64.454 8.36 2.81 -5
10/27/2022 1:30:00 AM 18.41 65.138 8.32 2.8 -5
10/27/2022 1:45:00 AM 17.66 63.788 8.29 2.82 -5
10/27/2022 2:00:00 AM 18.03 64.454 8.26 2.78 -5
10/27/2022 2:15:00 AM 18.26 64.868 8.23 2.77 -5
10/27/2022 2:30:00 AM 17.53 63.554 8.21 2.78 -5
10/27/2022 2:45:00 AM 17.79 64.022 8.18 2.83 -5
10/27/2022 3:00:00 AM 18.15 64.67 8.16 2.87 -5
10/27/2022 3:15:00 AM 17.53 63.554 8.14 2.85 -5
10/27/2022 3:30:00 AM 17.79 64.022 8.13 2.88 -5
10/27/2022 3:45:00 AM 17.9 64.22 8.11 2.9 -5
10/27/2022 4:00:00 AM 18.15 64.67 8.1 3 -5
10/27/2022 4:15:00 AM 17.53 63.554 8.09 2.96 -5
10/27/2022 4:30:00 AM 17.79 64.022 8.09 3.13 -5
10/27/2022 4:45:00 AM 18.03 64.454 8.08 3.14 -5
10/27/2022 5:00:00 AM 17.41 63.338 8.08 3.16 -5
10/27/2022 5:15:00 AM 17.66 63.788 8.08 3.37 -5
10/27/2022 5:30:00 AM 18.03 64.454 8.07 3.16 -5
10/27/2022 5:45:00 AM 17.29 63.122 8.07 3.44 -5
10/27/2022 6:00:00 AM 17.53 63.554 8.06 3.27 -5
10/27/2022 6:15:00 AM 18.03 64.454 8.06 3.22 -5
10/27/2022 6:30:00 AM 17.16 62.888 8.05 3.15 -5
10/27/2022 6:45:00 AM 17.66 63.788 8.04 2.97 -5
10/27/2022 7:00:00 AM 18.03 64.454 8.04 3.05 -5
10/27/2022 7:15:00 AM 17.29 63.122 8.03 2.96 -5
10/27/2022 7:30:00 AM 17.53 63.554 8.03 2.95 -5
10/27/2022 7:45:00 AM 17.9 64.22 8.02 2.96 -5
10/27/2022 8:00:00 AM 17.16 62.888 8.02 2.83 -5
10/27/2022 8:15:00 AM 17.29 63.122 8.02 2.86 -5
10/27/2022 8:30:00 AM 17.66 63.788 8.02 2.82 -5
10/27/2022 8:45:00 AM 17.53 63.554 8.01 2.74 -5
10/27/2022 9:00:00 AM 17.03 62.654 8.02 2.99 -5
10/27/2022 9:15:00 AM 17.16 62.888 8.02 2.73 -5
10/27/2022 9:30:00 AM 17.53 63.554 8.02 2.69 -5
10/27/2022 9:45:00 AM 17.53 63.554 8.03 2.69 -5
10/27/2022 10:00:00 AM 17.03 62.654 8.04 2.72 -5
10/27/2022 10:15:00 AM 17.41 63.338 8.05 2.92 -5
10/27/2022 10:30:00 AM 17.66 63.788 8.06 2.73 -5
10/27/2022 10:45:00 AM 17.66 63.788 8.07 2.67 -5
10/27/2022 11:00:00 AM 17.79 64.022 8.1 2.67 -5
10/27/2022 11:15:00 AM 17.03 62.654 8.13 2.7 -5
10/27/2022 11:30:00 AM 17.53 63.554 8.17 2.92 -5
10/27/2022 11:45:00 AM 17.9 64.22 8.2 2.73 -5
10/27/2022 12:00:00 PM 17.9 64.22 8.24 2.71 -5
10/27/2022 12:15:00 PM 18.15 64.67 8.27 2.69 -5
10/27/2022 12:30:00 PM 17.29 63.122 8.3 2.65 -5
10/27/2022 12:45:00 PM 17.66 63.788 8.34 2.77 -5
10/27/2022 1:00:00 PM 17.79 64.022 8.38 2.68 -5
10/27/2022 1:15:00 PM 18.03 64.454 8.42 2.68 -5
10/27/2022 1:30:00 PM 17.9 64.22 8.47 2.64 -5
10/27/2022 1:45:00 PM 17.52 63.536 8.52 2.64 -5
10/27/2022 2:00:00 PM 17.9 64.22 8.55 2.66 -5
10/27/2022 2:15:00 PM 18.41 65.138 8.59 2.66 -5
10/27/2022 2:30:00 PM 17.79 64.022 8.65 2.6 -5
10/27/2022 2:45:00 PM 18.03 64.454 8.69 2.64 -5
10/27/2022 3:00:00 PM 18.41 65.138 8.71 2.66 -5
10/27/2022 3:15:00 PM 17.9 64.22 8.76 2.61 -5
10/27/2022 3:30:00 PM 18.15 64.67 8.78 2.65 -5
10/27/2022 3:45:00 PM 18.52 65.336 8.8 2.65 -5
10/27/2022 4:00:00 PM 18.15 64.67 8.82 2.62 -5
10/27/2022 4:15:00 PM 18.15 64.67 8.86 2.62 -5
10/27/2022 4:30:00 PM 18.52 65.336 8.88 2.64 -5
10/27/2022 4:45:00 PM 18.26 64.868 8.9 2.6 -5
10/27/2022 5:00:00 PM 18.15 64.67 8.91 2.64 -5
10/27/2022 5:15:00 PM 18.52 65.336 8.94 2.7 -5
10/27/2022 5:30:00 PM 18.26 64.868 8.97 2.66 -5
10/27/2022 5:45:00 PM 18.14 64.652 9 2.7 -5
10/27/2022 6:00:00 PM 18.52 65.336 9.01 2.71 -5
10/27/2022 6:15:00 PM 18.03 64.454 9.02 2.71 -5
10/27/2022 6:30:00 PM 18.04 64.472 9.02 2.71 -5
10/27/2022 6:45:00 PM 18.52 65.336 9.02 2.72 -5
10/27/2022 7:00:00 PM 17.79 64.022 9.03 2.75 -5
10/27/2022 7:15:00 PM 18.03 64.454 9.02 2.79 -5
10/27/2022 7:30:00 PM 18.26 64.868 9.02 2.77 -5
10/27/2022 7:45:00 PM 17.66 63.788 9.01 2.76 -5
10/27/2022 8:00:00 PM 18.03 64.454 8.99 2.82 -5
10/27/2022 8:15:00 PM 18.41 65.138 8.98 2.78 -5
10/27/2022 8:30:00 PM 17.9 64.22 8.97 2.8 -5
10/27/2022 8:45:00 PM 17.9 64.22 8.95 2.8 -5
10/27/2022 9:00:00 PM 18.03 64.454 8.94 2.86 -5
10/27/2022 9:15:00 PM 18.15 64.67 8.93 2.82 -5
10/27/2022 9:30:00 PM 17.79 64.022 8.92 2.85 -5
10/27/2022 9:45:00 PM 18.03 64.454 8.9 2.87 -5
10/27/2022 10:00:00 PM 18.26 64.868 8.89 2.83 -5
10/27/2022 10:15:00 PM 17.53 63.554 8.88 2.97 -5
10/27/2022 10:30:00 PM 17.79 64.022 8.86 2.91 -5
10/27/2022 10:45:00 PM 18.03 64.454 8.84 2.92 -5
10/27/2022 11:00:00 PM 17.53 63.554 8.82 2.92 -5
10/27/2022 11:15:00 PM 17.66 63.788 8.8 2.93 -5
10/27/2022 11:30:00 PM 18.03 64.454 8.79 3.1 -5
10/27/2022 11:45:00 PM 18.03 64.454 8.77 2.94 -5
10/28/2022 12:00:00 AM 17.42 63.356 8.75 2.92 -5
10/28/2022 12:15:00 AM 17.79 64.022 8.73 2.96 -5
10/28/2022 12:30:00 AM 17.79 64.022 8.7 2.91 -5
10/28/2022 12:45:00 AM 17.16 62.888 8.67 3 -5
10/28/2022 1:00:00 AM 17.53 63.554 8.64 2.95 -5
10/28/2022 1:15:00 AM 17.9 64.22 8.6 2.93 -5
10/28/2022 1:30:00 AM 18.03 64.454 8.57 2.92 -5
10/28/2022 1:45:00 AM 16.92 62.456 8.52 2.97 -5
10/28/2022 2:00:00 AM 17.16 62.888 8.47 2.95 -5
10/28/2022 2:15:00 AM 17.66 63.788 8.43 2.95 -5
10/28/2022 2:30:00 AM 17.53 63.554 8.38 2.95 -5
10/28/2022 2:45:00 AM 16.92 62.456 8.34 2.97 -5
10/28/2022 3:00:00 AM 17.41 63.338 8.3 2.95 -5
10/28/2022 3:15:00 AM 17.66 63.788 8.26 2.97 -5
10/28/2022 3:30:00 AM 17.66 63.788 8.23 2.96 -5
10/28/2022 3:45:00 AM 17.79 64.022 8.2 2.96 -5
10/28/2022 4:00:00 AM 16.66 61.988 8.18 3.03 -5
10/28/2022 4:15:00 AM 17.16 62.888 8.17 2.99 -5
10/28/2022 4:30:00 AM 17.41 63.338 8.15 2.98 -5
10/28/2022 4:45:00 AM 17.29 63.122 8.14 2.97 -5
10/28/2022 5:00:00 AM 17.16 62.888 8.13 3.01 -5
10/28/2022 5:15:00 AM 16.92 62.456 8.11 3.05 -5
10/28/2022 5:30:00 AM 17.03 62.654 8.11 2.99 -5
10/28/2022 5:45:00 AM 17.41 63.338 8.1 2.98 -5
10/28/2022 6:00:00 AM 17.16 62.888 8.1 2.99 -5
10/28/2022 6:15:00 AM 17.16 62.888 8.09 3 -5
10/28/2022 6:30:00 AM 16.66 61.988 8.09 3.2 -5
10/28/2022 6:45:00 AM 17.16 62.888 8.09 3.02 -5
10/28/2022 7:00:00 AM 17.29 63.122 8.08 2.96 -5
10/28/2022 7:15:00 AM 17.16 62.888 8.08 2.92 -5
10/28/2022 7:30:00 AM 17.03 62.654 8.07 3 -5
10/28/2022 7:45:00 AM 17.03 62.654 8.07 3.17 -5
10/28/2022 8:00:00 AM 17.03 62.654 8.07 2.98 -5
10/28/2022 8:15:00 AM 16.78 62.204 8.07 2.93 -5
10/28/2022 8:30:00 AM 16.92 62.456 8.07 2.91 -5
10/28/2022 8:45:00 AM 16.78 62.204 8.07 3 -5
10/28/2022 9:00:00 AM 16.92 62.456 8.07 3.4 -5
10/28/2022 9:15:00 AM 17.03 62.654 8.08 3.52 -5
10/28/2022 9:30:00 AM 16.92 62.456 8.08 3.23 -5
10/28/2022 9:45:00 AM 16.66 61.988 8.09 3.07 -5
10/28/2022 10:00:00 AM 16.78 62.204 8.11 2.96 -5
10/28/2022 10:15:00 AM 16.78 62.204 8.13 2.91 -5
10/28/2022 10:30:00 AM 16.78 62.204 8.14 2.91 -5
10/28/2022 10:45:00 AM 16.78 62.204 8.17 2.84 -5
10/28/2022 11:00:00 AM 16.66 61.988 8.21 2.87 -5
10/28/2022 11:15:00 AM 16.54 61.772 8.25 2.84 -5
10/28/2022 11:30:00 AM 16.78 62.204 8.28 2.82 -5
10/28/2022 11:45:00 AM 16.78 62.204 8.31 2.83 -5
10/28/2022 12:00:00 PM 16.78 62.204 8.34 3.12 -5
10/28/2022 12:15:00 PM 16.9 62.42 8.37 2.89 -5
10/28/2022 12:30:00 PM 16.78 62.204 8.39 2.84 -5
10/28/2022 12:45:00 PM 16.72 62.096 8.42 2.89 -5
10/28/2022 1:00:00 PM 16.54 61.772 8.46 2.94 -5
10/28/2022 1:15:00 PM 16.92 62.456 8.5 2.92 -5
10/28/2022 1:30:00 PM 16.66 61.988 8.55 2.91 -5
10/28/2022 1:45:00 PM 16.92 62.456 8.59 2.87 -5
10/28/2022 2:00:00 PM 17.16 62.888 8.63 2.86 -5
10/28/2022 2:15:00 PM 16.55 61.79 8.66 2.79 -5
10/28/2022 2:30:00 PM 16.66 61.988 8.68 2.87 -5
10/28/2022 2:45:00 PM 17.03 62.654 8.7 2.94 -5
10/28/2022 3:00:00 PM 17.29 63.122 8.73 2.82 -5
10/28/2022 3:15:00 PM 16.92 62.456 8.75 2.79 -5
10/28/2022 3:30:00 PM 16.66 61.988 8.78 2.84 -5
10/28/2022 3:45:00 PM 17.16 62.888 8.8 2.78 -5
10/28/2022 4:00:00 PM 17.53 63.554 8.82 2.87 -5
10/28/2022 4:15:00 PM 17.29 63.122 8.85 2.77 -5
10/28/2022 4:30:00 PM 16.66 61.988 8.88 2.76 -5
10/28/2022 4:45:00 PM 17.03 62.654 8.89 2.76 -5
10/28/2022 5:00:00 PM 17.29 63.122 8.91 2.77 -5
10/28/2022 5:15:00 PM 16.66 61.988 8.93 2.81 -5
10/28/2022 5:30:00 PM 16.78 62.204 8.94 2.76 -5
10/28/2022 5:45:00 PM 17.29 63.122 8.96 2.76 -5
10/28/2022 6:00:00 PM 17.53 63.554 8.98 2.84 -5
10/28/2022 6:15:00 PM 16.78 62.204 8.98 2.86 -5
10/28/2022 6:30:00 PM 16.78 62.204 8.98 2.83 -5
10/28/2022 6:45:00 PM 17.03 62.654 8.98 2.91 -5
10/28/2022 7:00:00 PM 17.29 63.122 8.98 2.84 -5
10/28/2022 7:15:00 PM 16.54 61.772 8.97 2.88 -5
10/28/2022 7:30:00 PM 16.54 61.772 8.97 2.9 -5
10/28/2022 7:45:00 PM 17.03 62.654 8.95 2.86 -5
10/28/2022 8:00:00 PM 17.03 62.654 8.95 2.88 -5
10/28/2022 8:15:00 PM 16.4 61.52 8.93 2.89 -5
10/28/2022 8:30:00 PM 16.78 62.204 8.92 2.97 -5
10/28/2022 8:45:00 PM 17.03 62.654 8.91 2.93 -5
10/28/2022 9:00:00 PM 17.03 62.654 8.9 2.97 -5
10/28/2022 9:15:00 PM 16.92 62.456 8.89 2.93 -5
10/28/2022 9:30:00 PM 16.4 61.52 8.88 2.94 -5
10/28/2022 9:45:00 PM 16.66 61.988 8.87 3.03 -5
10/28/2022 10:00:00 PM 17.03 62.654 8.86 2.96 -5
10/28/2022 10:15:00 PM 16.78 62.204 8.85 2.96 -5
10/28/2022 10:30:00 PM 17.03 62.654 8.84 2.9 -5
10/28/2022 10:45:00 PM 16.79 62.222 8.83 2.9 -5
10/28/2022 11:00:00 PM 16.17 61.106 8.82 3.12 -5
10/28/2022 11:15:00 PM 16.54 61.772 8.8 2.89 -5
10/28/2022 11:30:00 PM 16.17 61.106 8.79 2.93 -5
10/28/2022 11:45:00 PM 16.66 61.988 8.77 2.93 -5
10/29/2022 12:00:00 AM 16.54 61.772 8.74 2.94 -5
10/29/2022 12:15:00 AM 16.78 62.204 8.72 3.13 -5
10/29/2022 12:30:00 AM 16.92 62.456 8.7 2.93 -5
10/29/2022 12:45:00 AM 17.03 62.654 8.67 2.93 -5
10/29/2022 1:00:00 AM 15.79 60.422 8.63 2.97 -5
10/29/2022 1:15:00 AM 16.55 61.79 8.6 2.95 -5
10/29/2022 1:30:00 AM 16.55 61.79 8.56 3.28 -5
10/29/2022 1:45:00 AM 16.92 62.456 8.52 2.94 -5
10/29/2022 2:00:00 AM 16.78 62.204 8.49 2.94 -5
10/29/2022 2:15:00 AM 17.03 62.654 8.44 2.91 -5
10/29/2022 2:30:00 AM 16.79 62.222 8.41 2.9 -5
10/29/2022 2:45:00 AM 16.66 61.988 8.37 3.25 -5
10/29/2022 3:00:00 AM 16.55 61.79 8.34 2.89 -5
10/29/2022 3:15:00 AM 16.92 62.456 8.3 2.95 -5
10/29/2022 3:30:00 AM 16.92 62.456 8.27 2.93 -5
10/29/2022 3:45:00 AM 16.78 62.204 8.25 2.93 -5
10/29/2022 4:00:00 AM 16.55 61.79 8.23 2.9 -5
10/29/2022 4:15:00 AM 16.78 62.204 8.21 2.97 -5
10/29/2022 4:30:00 AM 16.4 61.52 8.2 2.96 -5
10/29/2022 4:45:00 AM 16.78 62.204 8.19 2.89 -5
10/29/2022 5:00:00 AM 16.4 61.52 8.18 2.89 -5
10/29/2022 5:15:00 AM 16.55 61.79 8.17 2.87 -5
10/29/2022 5:30:00 AM 16.4 61.52 8.16 2.91 -5
10/29/2022 5:45:00 AM 16.66 61.988 8.16 2.9 -5
10/29/2022 6:00:00 AM 16.55 61.79 8.15 2.92 -5
10/29/2022 6:15:00 AM 16.55 61.79 8.14 2.91 -5
10/29/2022 6:30:00 AM 16.54 61.772 8.14 2.91 -5
10/29/2022 6:45:00 AM 16.18 61.124 8.13 2.91 -5
10/29/2022 7:00:00 AM 16.03 60.854 8.13 2.89 -5
10/29/2022 7:15:00 AM 16.03 60.854 8.13 2.97 -5
10/29/2022 7:30:00 AM 16.17 61.106 8.12 2.94 -5
10/29/2022 7:45:00 AM 15.79 60.422 8.12 2.89 -5
10/29/2022 8:00:00 AM 16.03 60.854 8.11 2.89 -5
10/29/2022 8:15:00 AM 16.03 60.854 8.11 2.87 -5
10/29/2022 8:30:00 AM 15.54 59.972 8.11 2.91 -5
10/29/2022 8:45:00 AM 15.79 60.422 8.11 2.91 -5
10/29/2022 9:00:00 AM 15.79 60.422 8.11 2.85 -5
10/29/2022 9:15:00 AM 15.66 60.188 8.12 2.93 -5
10/29/2022 9:30:00 AM 15.91 60.638 8.12 3.06 -5
10/29/2022 9:45:00 AM 15.92 60.656 8.12 3.12 -5
10/29/2022 10:00:00 AM 16.03 60.854 8.13 2.95 -5
10/29/2022 10:15:00 AM 15.79 60.422 8.15 2.85 -5
10/29/2022 10:30:00 AM 15.92 60.656 8.17 2.85 -5
10/29/2022 10:45:00 AM 15.79 60.422 8.19 2.86 -5
10/29/2022 11:00:00 AM 15.66 60.188 8.21 2.85 -5
10/29/2022 11:15:00 AM 15.79 60.422 8.23 2.8 -5
10/29/2022 11:30:00 AM 15.79 60.422 8.26 2.8 -5
10/29/2022 11:45:00 AM 15.92 60.656 8.29 2.81 -5
10/29/2022 12:00:00 PM 15.79 60.422 8.32 2.79 -5
10/29/2022 12:15:00 PM 15.79 60.422 8.35 2.81 -5
10/29/2022 12:30:00 PM 16.03 60.854 8.37 2.81 -5
10/29/2022 12:45:00 PM 16.29 61.322 8.4 2.81 -5
10/29/2022 1:00:00 PM 16.03 60.854 8.44 2.82 -5
10/29/2022 1:15:00 PM 16.17 61.106 8.47 2.8 -5
10/29/2022 1:30:00 PM 16.29 61.322 8.5 2.78 -5
10/29/2022 1:45:00 PM 16.55 61.79 8.54 2.77 -5
10/29/2022 2:00:00 PM 16.4 61.52 8.58 2.73 -5
10/29/2022 2:15:00 PM 16.54 61.772 8.61 2.83 -5
10/29/2022 2:30:00 PM 16.78 62.204 8.63 2.91 -5
10/29/2022 2:45:00 PM 16.78 62.204 8.66 2.78 -5
10/29/2022 3:00:00 PM 16.92 62.456 8.69 2.75 -5
10/29/2022 3:15:00 PM 17.03 62.654 8.71 2.75 -5
10/29/2022 3:30:00 PM 17.16 62.888 8.76 2.83 -5
10/29/2022 3:45:00 PM 17.29 63.122 8.78 2.71 -5
10/29/2022 4:00:00 PM 17.16 62.888 8.8 2.78 -5
10/29/2022 4:15:00 PM 17.03 62.654 8.82 2.86 -5
10/29/2022 4:30:00 PM 16.92 62.456 8.84 2.81 -5
10/29/2022 4:45:00 PM 17.29 63.122 8.85 2.95 -5
10/29/2022 5:00:00 PM 17.29 63.122 8.87 2.76 -5
10/29/2022 5:15:00 PM 16.29 61.322 8.88 2.75 -5
10/29/2022 5:30:00 PM 16.92 62.456 8.89 2.73 -5
10/29/2022 5:45:00 PM 17.29 63.122 8.9 2.75 -5
10/29/2022 6:00:00 PM 17.16 62.888 8.92 2.98 -5
10/29/2022 6:15:00 PM 16.54 61.772 8.92 2.74 -5
10/29/2022 6:30:00 PM 16.54 61.772 8.94 2.77 -5
10/29/2022 6:45:00 PM 17.16 62.888 8.94 2.8 -5
10/29/2022 7:00:00 PM 16.92 62.456 8.95 2.78 -5
10/29/2022 7:15:00 PM 17.03 62.654 8.94 2.91 -5
10/29/2022 7:30:00 PM 16.17 61.106 8.95 2.82 -5
10/29/2022 7:45:00 PM 16.54 61.772 8.94 2.81 -5
10/29/2022 8:00:00 PM 16.66 61.988 8.92 2.82 -5
10/29/2022 8:15:00 PM 16.92 62.456 8.91 2.83 -5
10/29/2022 8:30:00 PM 16.78 62.204 8.9 2.89 -5
10/29/2022 8:45:00 PM 16.92 62.456 8.88 2.84 -5
10/29/2022 9:00:00 PM 16.03 60.854 8.87 2.88 -5
10/29/2022 9:15:00 PM 16.54 61.772 8.87 2.92 -5
10/29/2022 9:30:00 PM 16.92 62.456 8.86 2.95 -5
10/29/2022 9:45:00 PM 16.54 61.772 8.85 2.87 -5
10/29/2022 10:00:00 PM 16.92 62.456 8.84 2.82 -5
10/29/2022 10:15:00 PM 16.03 60.854 8.83 2.89 -5
10/29/2022 10:30:00 PM 16.03 60.854 8.81 2.97 -5
10/29/2022 10:45:00 PM 16.66 61.988 8.8 2.9 -5
10/29/2022 11:00:00 PM 16.55 61.79 8.79 2.89 -5
10/29/2022 11:15:00 PM 16.78 62.204 8.77 2.91 -5
10/29/2022 11:30:00 PM 16.79 62.222 8.75 2.96 -5
10/29/2022 11:45:00 PM 16.29 61.322 8.74 2.89 -5
10/30/2022 12:00:00 AM 16.17 61.106 8.73 2.88 -5
10/30/2022 12:15:00 AM 16.17 61.106 8.71 2.89 -5
10/30/2022 12:30:00 AM 16.78 62.204 8.68 2.93 -5
10/30/2022 12:45:00 AM 16.54 61.772 8.65 2.92 -5
10/30/2022 1:00:00 AM 16.55 61.79 8.62 2.95 -5
10/30/2022 1:15:00 AM 16.54 61.772 8.59 2.96 -5
10/30/2022 1:30:00 AM 16.55 61.79 8.55 2.94 -5
10/30/2022 1:45:00 AM 16.4 61.52 8.52 2.94 -5
10/30/2022 2:00:00 AM 16.4 61.52 8.48 2.95 -5
10/30/2022 2:15:00 AM 16.66 61.988 8.44 2.92 -5
10/30/2022 2:30:00 AM 16.66 61.988 8.4 2.92 -5
10/30/2022 2:45:00 AM 16.4 61.52 8.37 2.9 -5
10/30/2022 3:00:00 AM 16.54 61.772 8.33 2.93 -5
10/30/2022 3:15:00 AM 16.55 61.79 8.3 2.95 -5
10/30/2022 3:30:00 AM 16.29 61.322 8.28 4.07 -5
10/30/2022 3:45:00 AM 16.4 61.52 8.26 3.49 -5
10/30/2022 4:00:00 AM 16.29 61.322 8.24 3.31 -5
10/30/2022 4:15:00 AM 16.29 61.322 8.22 3.03 -5
10/30/2022 4:30:00 AM 16.03 60.854 8.21 2.96 -5
10/30/2022 4:45:00 AM 16.54 61.772 8.2 3.04 -5
10/30/2022 5:00:00 AM 16.29 61.322 8.19 3.42 -5
10/30/2022 5:15:00 AM 16.17 61.106 8.18 3.34 -5
10/30/2022 5:30:00 AM 16.29 61.322 8.17 3.72 -5
10/30/2022 5:45:00 AM 16.28 61.304 8.17 3.12 -5
10/30/2022 6:00:00 AM 16.29 61.322 8.16 3.03 -5
10/30/2022 6:15:00 AM 16.29 61.322 8.16 3 -5
10/30/2022 6:30:00 AM 16.03 60.854 8.16 2.97 -5
10/30/2022 6:45:00 AM 16.17 61.106 8.15 3.01 -5
10/30/2022 7:00:00 AM 16.29 61.322 8.15 3 -5
10/30/2022 7:15:00 AM 16.29 61.322 8.14 3.06 -5
10/30/2022 7:30:00 AM 16.17 61.106 8.14 3.3 -5
10/30/2022 7:45:00 AM 15.91 60.638 8.13 4.1 -5
10/30/2022 8:00:00 AM 16.17 61.106 8.13 3.15 -5
10/30/2022 8:15:00 AM 16.03 60.854 8.13 3.07 -5
10/30/2022 8:30:00 AM 16.17 61.106 8.13 2.97 -5
10/30/2022 8:45:00 AM 15.92 60.656 8.13 2.98 -5
10/30/2022 9:00:00 AM 15.91 60.638 8.13 3.03 -5
10/30/2022 9:15:00 AM 15.79 60.422 8.13 3.13 -5
10/30/2022 9:30:00 AM 15.92 60.656 8.14 3.01 -5
10/30/2022 9:45:00 AM 15.79 60.422 8.15 2.96 -5
10/30/2022 10:00:00 AM 15.79 60.422 8.16 2.93 -5
10/30/2022 10:15:00 AM 15.66 60.188 8.17 2.91 -5
10/30/2022 10:30:00 AM 15.78 60.404 8.18 2.85 -5
10/30/2022 10:45:00 AM 15.92 60.656 8.2 2.9 -5
10/30/2022 11:00:00 AM 15.79 60.422 8.23 2.87 -5
10/30/2022 11:15:00 AM 16.03 60.854 8.26 2.97 -5
10/30/2022 11:30:00 AM 16.03 60.854 8.28 2.88 -5
10/30/2022 11:45:00 AM 16.03 60.854 8.31 2.88 -5
10/30/2022 12:00:00 PM 16.29 61.322 8.34 2.85 -5
10/30/2022 12:15:00 PM 16.4 61.52 8.37 2.88 -5
10/30/2022 12:30:00 PM 16.29 61.322 8.4 3 -5
10/30/2022 12:45:00 PM 16.29 61.322 8.44 2.9 -5
10/30/2022 1:00:00 PM 16.55 61.79 8.47 2.82 -5
10/30/2022 1:15:00 PM 16.66 61.988 8.5 2.95 -5
10/30/2022 1:30:00 PM 16.78 62.204 8.54 2.82 -5
10/30/2022 1:45:00 PM 16.92 62.456 8.58 2.8 -5
10/30/2022 2:00:00 PM 16.92 62.456 8.62 2.85 -5
10/30/2022 2:15:00 PM 17.03 62.654 8.64 2.88 -5
10/30/2022 2:30:00 PM 17.03 62.654 8.67 2.88 -5
10/30/2022 2:45:00 PM 17.03 62.654 8.7 2.88 -5
10/30/2022 3:00:00 PM 17.29 63.122 8.73 2.86 -5
10/30/2022 3:15:00 PM 16.28 61.304 8.75 2.92 -5
10/30/2022 3:30:00 PM 16.78 62.204 8.77 2.82 -5
10/30/2022 3:45:00 PM 17.16 62.888 8.8 2.87 -5
10/30/2022 4:00:00 PM 17.29 63.122 8.82 2.87 -5
10/30/2022 4:15:00 PM 17.16 62.888 8.83 2.89 -5
10/30/2022 4:30:00 PM 16.66 61.988 8.85 2.92 -5
10/30/2022 4:45:00 PM 17.03 62.654 8.88 2.87 -5
10/30/2022 5:00:00 PM 17.29 63.122 8.89 2.88 -5
10/30/2022 5:15:00 PM 16.66 61.988 8.9 2.97 -5
10/30/2022 5:30:00 PM 16.78 62.204 8.91 2.9 -5
10/30/2022 5:45:00 PM 17.16 62.888 8.93 2.89 -5
10/30/2022 6:00:00 PM 17.03 62.654 8.94 2.85 -5
10/30/2022 6:15:00 PM 16.66 61.988 8.95 2.89 -5
10/30/2022 6:30:00 PM 16.92 62.456 8.96 2.87 -5
10/30/2022 6:45:00 PM 17.16 62.888 8.96 2.84 -5
10/30/2022 7:00:00 PM 16.28 61.304 8.96 2.9 -5
10/30/2022 7:15:00 PM 16.92 62.456 8.95 2.97 -5
10/30/2022 7:30:00 PM 17.29 63.122 8.95 2.9 -5
10/30/2022 7:45:00 PM 16.4 61.52 8.95 2.86 -5
10/30/2022 8:00:00 PM 16.92 62.456 8.93 2.9 -5
10/30/2022 8:15:00 PM 17.29 63.122 8.92 2.94 -5
10/30/2022 8:30:00 PM 16.4 61.52 8.91 2.92 -5
10/30/2022 8:45:00 PM 16.75 62.15 8.9 2.95 -5
10/30/2022 9:00:00 PM 17.03 62.654 8.89 2.91 -5
10/30/2022 9:15:00 PM 16.66 61.988 8.88 3.03 -5
10/30/2022 9:30:00 PM 16.54 61.772 8.87 2.96 -5
10/30/2022 9:45:00 PM 17.03 62.654 8.86 2.96 -5
10/30/2022 10:00:00 PM 17.03 62.654 8.85 2.98 -5
10/30/2022 10:15:00 PM 16.4 61.52 8.83 3.01 -5
10/30/2022 10:30:00 PM 16.78 62.204 8.82 2.93 -5
10/30/2022 10:45:00 PM 17.03 62.654 8.81 2.94 -5
10/30/2022 11:00:00 PM 16.03 60.854 8.79 2.97 -5
10/30/2022 11:15:00 PM 16.66 61.988 8.78 3.05 -5
10/30/2022 11:30:00 PM 16.92 62.456 8.77 2.95 -5
10/30/2022 11:45:00 PM 16.17 61.106 8.75 2.96 -5
10/31/2022 12:00:00 AM 16.4 61.52 8.73 2.99 -5
10/31/2022 12:15:00 AM 16.78 62.204 8.71 3 -5
10/31/2022 12:30:00 AM 16.66 61.988 8.69 2.99 -5
10/31/2022 12:45:00 AM 16.17 61.106 8.66 2.98 -5
10/31/2022 1:00:00 AM 16.78 62.204 8.63 3.02 -5
10/31/2022 1:15:00 AM 16.78 62.204 8.59 3.13 -5
10/31/2022 1:30:00 AM 16.03 60.854 8.56 3 -5
10/31/2022 1:45:00 AM 16.66 61.988 8.53 2.98 -5
10/31/2022 2:00:00 AM 16.78 62.204 8.49 2.99 -5
10/31/2022 2:15:00 AM 16.29 61.322 8.45 3.01 -5
10/31/2022 2:30:00 AM 16.29 61.322 8.41 3.01 -5
10/31/2022 2:45:00 AM 16.92 62.456 8.38 3 -5
10/31/2022 3:00:00 AM 16.97 62.546 8.35 2.99 -5
10/31/2022 3:15:00 AM 16.17 61.106 8.32 3.13 -5
10/31/2022 3:30:00 AM 16.66 61.988 8.3 3 -5
10/31/2022 3:45:00 AM 16.92 62.456 8.28 3.01 -5
10/31/2022 4:00:00 AM 16.28 61.304 8.26 3.03 -5
10/31/2022 4:15:00 AM 16.4 61.52 8.24 3.06 -5
10/31/2022 4:30:00 AM 16.92 62.456 8.23 3.07 -5
10/31/2022 4:45:00 AM 17.03 62.654 8.22 3.43 -5
10/31/2022 5:00:00 AM 16.03 60.854 8.21 3.07 -5
10/31/2022 5:15:00 AM 16.66 61.988 8.21 3.16 -5
10/31/2022 5:30:00 AM 16.92 62.456 8.2 3.03 -5
10/31/2022 5:45:00 AM 16.54 61.772 8.19 3.02 -5
10/31/2022 6:00:00 AM 16.17 61.106 8.19 3.05 -5
10/31/2022 6:15:00 AM 16.55 61.79 8.19 3.06 -5
10/31/2022 6:30:00 AM 16.92 62.456 8.19 2.98 -5
10/31/2022 6:45:00 AM 16.03 60.854 8.18 3.01 -5
10/31/2022 7:00:00 AM 16.28 61.304 8.18 3 -5
10/31/2022 7:15:00 AM 16.4 61.52 8.17 3.03 -5
10/31/2022 7:30:00 AM 16.66 61.988 8.17 2.83 -5
10/31/2022 7:45:00 AM 16.66 61.988 8.17 2.87 -5
10/31/2022 8:00:00 AM 16.54 61.772 8.15 2.29 -5
10/31/2022 8:15:00 AM 16.92 62.456 8.15 2.32 -5
10/31/2022 8:30:00 AM 16.92 62.456 8.15 2.3 -5
10/31/2022 8:45:00 AM 16.78 62.204 8.15 2.27 -5
10/31/2022 9:00:00 AM 16.66 61.988 8.15 2.27 -5
10/31/2022 9:15:00 AM 16.92 62.456 8.15 2.31 -5
10/31/2022 9:30:00 AM 17.16 62.888 8.15 2.23 -5
10/31/2022 9:45:00 AM 17.16 62.888 8.15 2.2 -5
10/31/2022 10:00:00 AM 17.16 62.888 8.15 2.22 -5
10/31/2022 10:15:00 AM 16.4 61.52 8.15 2.26 -5
10/31/2022 10:30:00 AM 16.4 61.52 8.15 2.21 -5
10/31/2022 10:45:00 AM 17.03 62.654 8.15 2.19 -5
10/31/2022 11:00:00 AM 17.16 62.888 8.15 2.16 -5
10/31/2022 11:15:00 AM 17.16 62.888 8.15 2.18 -5
10/31/2022 11:30:00 AM 16.4 61.52 8.15 2.18 -5
10/31/2022 11:45:00 AM 16.66 61.988 8.15 2.16 -5
10/31/2022 12:00:00 PM 17.16 62.888 8.15 2.18 -5
10/31/2022 12:15:00 PM 17.16 62.888 8.15 2.16 -5
10/31/2022 12:30:00 PM 16.66 61.988 8.15 2.18 -5
10/31/2022 12:45:00 PM 16.54 61.772 8.15 2.19 -5
10/31/2022 1:00:00 PM 17.03 62.654 8.15 2.17 -5
10/31/2022 1:15:00 PM 17.29 63.122 8.15 2.15 -5
10/31/2022 1:30:00 PM 16.66 61.988 8.15 2.15 -5
10/31/2022 1:45:00 PM 16.66 61.988 8.15 2.14 -5
10/31/2022 2:00:00 PM 16.92 62.456 8.15 2.15 -5
10/31/2022 2:15:00 PM 17.16 62.888 8.27 2.1 -5
10/31/2022 2:30:00 PM 16.92 62.456 8.28 2.15 -5
10/31/2022 2:45:00 PM 16.28 61.304 8.28 2.15 -5
10/31/2022 3:00:00 PM 16.65 61.97 8.3 2.13 -5
10/31/2022 3:15:00 PM 16.54 61.772 8.35 2.1 -5
10/31/2022 3:30:00 PM 16.55 61.79 8.4 2.11 -5
10/31/2022 3:45:00 PM 16.54 61.772 8.43 2.11 -5
10/31/2022 4:00:00 PM 16.78 62.204 8.45 2.13 -5
10/31/2022 4:15:00 PM 17.03 62.654 8.46 2.11 -5
10/31/2022 4:30:00 PM 16.4 61.52 8.46 2.14 -5
10/31/2022 4:45:00 PM 16.66 61.988 8.46 2.11 -5
10/31/2022 5:00:00 PM 17.03 62.654 8.46 2.14 -5
10/31/2022 5:15:00 PM 16.4 61.52 8.48 2.14 -5
10/31/2022 5:30:00 PM 16.54 61.772 8.5 2.14 -5
10/31/2022 5:45:00 PM 17.03 62.654 8.51 2.12 -5
10/31/2022 6:00:00 PM 17.15 62.87 8.51 2.15 -5
10/31/2022 6:15:00 PM 16.65 61.97 8.5 2.16 -5
10/31/2022 6:30:00 PM 17.03 62.654 8.49 2.17 -5
10/31/2022 6:45:00 PM 17.29 63.122 8.49 2.15 -5
10/31/2022 7:00:00 PM 16.28 61.304 8.48 2.2 -5
10/31/2022 7:15:00 PM 16.78 62.204 8.47 2.17 -5
10/31/2022 7:30:00 PM 17.08 62.744 8.47 2.17 -5
10/31/2022 7:45:00 PM 16.66 61.988 8.46 2.2 -5
10/31/2022 8:00:00 PM 16.66 61.988 8.45 2.25 -5
10/31/2022 8:15:00 PM 17.03 62.654 8.43 2.29 -5
10/31/2022 8:30:00 PM 16.92 62.456 8.42 2.25 -5
10/31/2022 8:45:00 PM 16.66 61.988 8.4 2.27 -5
10/31/2022 9:00:00 PM 17.03 62.654 8.39 2.25 -5
10/31/2022 9:15:00 PM 16.54 61.772 8.37 2.3 -5
10/31/2022 9:30:00 PM 16.54 61.772 8.36 2.31 -5
10/31/2022 9:45:00 PM 16.92 62.456 8.34 2.23 -5
10/31/2022 10:00:00 PM 16.66 61.988 8.33 2.24 -5
10/31/2022 10:15:00 PM 16.17 61.106 8.31 2.34 -5
10/31/2022 10:30:00 PM 16.92 62.456 8.3 2.32 -5
10/31/2022 10:45:00 PM 17.03 62.654 8.28 2.29 -5
10/31/2022 11:00:00 PM 16.4 61.52 8.26 2.27 -5
10/31/2022 11:15:00 PM 16.92 62.456 8.23 2.29 -5
10/31/2022 11:30:00 PM 16.78 62.204 8.21 2.28 -5
10/31/2022 11:45:00 PM 16.66 61.988 8.19 2.33 -5
11/1/2022 12:00:00 AM 17.03 62.654 8.15 2.37 -5
11/1/2022 12:15:00 AM 16.92 62.456 8.12 2.36 -5
11/1/2022 12:30:00 AM 16.66 61.988 8.09 2.34 -5
11/1/2022 12:45:00 AM 17.16 62.888 8.06 2.35 -5
11/1/2022 1:00:00 AM 16.65 61.97 8.02 2.31 -5
11/1/2022 1:15:00 AM 16.66 61.988 7.99 2.3 -5
11/1/2022 1:30:00 AM 17.29 63.122 7.96 2.33 -5
11/1/2022 1:45:00 AM 16.4 61.52 7.93 2.32 -5
11/1/2022 2:00:00 AM 17.03 62.654 7.91 2.36 -5
11/1/2022 2:15:00 AM 17.03 62.654 7.87 2.41 -5
11/1/2022 2:30:00 AM 16.54 61.772 7.85 2.39 -5
11/1/2022 2:45:00 AM 17.16 62.888 7.83 2.39 -5
11/1/2022 3:00:00 AM 16.92 62.456 7.82 2.38 -5
11/1/2022 3:15:00 AM 16.65 61.97 7.79 2.41 -5
11/1/2022 3:30:00 AM 17.29 63.122 7.78 2.39 -5
11/1/2022 3:45:00 AM 16.66 61.988 7.77 2.4 -5
11/1/2022 4:00:00 AM 17.03 62.654 7.76 2.46 -5
11/1/2022 4:15:00 AM 17.41 63.338 7.75 2.44 -5
11/1/2022 4:30:00 AM 16.65 61.97 7.74 2.45 -5
11/1/2022 4:45:00 AM 17.03 62.654 7.73 2.47 -5
11/1/2022 5:00:00 AM 17.29 63.122 7.72 2.49 -5
11/1/2022 5:15:00 AM 16.66 61.988 7.72 2.46 -5
11/1/2022 5:30:00 AM 17.16 62.888 7.71 2.43 -5
11/1/2022 5:45:00 AM 17.03 62.654 7.71 2.45 -5
11/1/2022 6:00:00 AM 16.92 62.456 7.7 2.53 -5
11/1/2022 6:15:00 AM 17.41 63.338 7.69 2.47 -5
11/1/2022 6:30:00 AM 16.66 61.988 7.69 2.47 -5
11/1/2022 6:45:00 AM 16.92 62.456 7.69 2.51 -5
11/1/2022 7:00:00 AM 17.53 63.554 7.68 2.46 -5
11/1/2022 7:15:00 AM 16.65 61.97 7.67 2.48 -5
11/1/2022 7:30:00 AM 16.78 62.204 7.69 2.48 -5
11/1/2022 7:45:00 AM 17.41 63.338 7.68 2.48 -5
11/1/2022 8:00:00 AM 16.54 61.772 7.66 2.51 -5
11/1/2022 8:15:00 AM 16.92 62.456 7.65 2.43 -5
11/1/2022 8:30:00 AM 17.16 62.888 7.64 2.45 -5
11/1/2022 8:45:00 AM 16.4 61.52 7.63 2.42 -5
11/1/2022 9:00:00 AM 16.78 62.204 7.63 2.4 -5
11/1/2022 9:15:00 AM 16.92 62.456 7.63 2.36 -5
11/1/2022 9:30:00 AM 16.54 61.772 7.63 2.39 -5
11/1/2022 9:45:00 AM 17.16 62.888 7.64 2.35 -5
11/1/2022 10:00:00 AM 16.92 62.456 7.67 2.46 -5
11/1/2022 10:15:00 AM 16.66 61.988 7.68 2.41 -5
11/1/2022 10:30:00 AM 17.16 62.888 7.7 2.35 -5
11/1/2022 10:45:00 AM 16.66 61.988 7.73 2.33 -5
11/1/2022 11:00:00 AM 16.66 61.988 7.75 2.3 -5
11/1/2022 11:15:00 AM 17.29 63.122 7.78 2.3 -5
11/1/2022 11:30:00 AM 16.78 62.204 7.83 2.29 -5
11/1/2022 11:45:00 AM 16.92 62.456 7.89 2.32 -5
11/1/2022 12:00:00 PM 17.53 63.554 7.93 2.35 -5
11/1/2022 12:15:00 PM 16.78 62.204 7.95 2.25 -5
11/1/2022 12:30:00 PM 17.16 62.888 7.97 2.28 -5
11/1/2022 12:45:00 PM 17.66 63.788 7.99 2.3 -5
11/1/2022 1:00:00 PM 16.7 62.06 8 2.32 -5
11/1/2022 1:15:00 PM 17.41 63.338 8.02 2.31 -5
11/1/2022 1:30:00 PM 17.53 63.554 8.06 2.25 -5
11/1/2022 1:45:00 PM 17.16 62.888 8.1 2.27 -5
11/1/2022 2:00:00 PM 17.53 63.554 8.13 2.38 -5
11/1/2022 2:15:00 PM 17.66 63.788 8.16 2.25 -5
11/1/2022 2:30:00 PM 17.16 62.888 8.2 2.29 -5
11/1/2022 2:45:00 PM 17.66 63.788 8.2 2.31 -5
11/1/2022 3:00:00 PM 17.41 63.338 8.22 2.26 -5
11/1/2022 3:15:00 PM 17.41 63.338 8.24 2.28 -5
11/1/2022 3:30:00 PM 18.03 64.454 8.27 2.22 -5
11/1/2022 3:45:00 PM 17.29 63.122 8.3 2.24 -5
11/1/2022 4:00:00 PM 17.79 64.022 8.31 2.34 -5
11/1/2022 4:15:00 PM 17.9 64.22 8.32 2.27 -5
11/1/2022 4:30:00 PM 17.53 63.554 8.34 2.27 -5
11/1/2022 4:45:00 PM 18.03 64.454 8.36 2.26 -5
11/1/2022 5:00:00 PM 17.79 64.022 8.37 2.3 -5
11/1/2022 5:15:00 PM 17.66 63.788 8.39 2.27 -5
11/1/2022 5:30:00 PM 18.26 64.868 8.41 2.29 -5
11/1/2022 5:45:00 PM 17.66 63.788 8.43 2.26 -5
11/1/2022 6:00:00 PM 18.15 64.67 8.42 2.39 -5
11/1/2022 6:15:00 PM 18.03 64.454 8.42 2.26 -5
11/1/2022 6:30:00 PM 17.66 63.788 8.42 2.28 -5
11/1/2022 6:45:00 PM 18.41 65.138 8.43 2.31 -5
11/1/2022 7:00:00 PM 17.66 63.788 8.44 2.3 -5
11/1/2022 7:15:00 PM 17.9 64.22 8.43 2.3 -5
11/1/2022 7:30:00 PM 18.03 64.454 8.41 2.34 -5
11/1/2022 7:45:00 PM 17.53 63.554 8.39 2.37 -5
11/1/2022 8:00:00 PM 18.15 64.67 8.39 2.46 -5
11/1/2022 8:15:00 PM 17.41 63.338 8.37 2.35 -5
11/1/2022 8:30:00 PM 17.66 63.788 8.36 2.42 -5
11/1/2022 8:45:00 PM 17.9 64.22 8.35 2.39 -5
11/1/2022 9:00:00 PM 17.41 63.338 8.34 2.4 -5
11/1/2022 9:15:00 PM 18.03 64.454 8.33 2.45 -5
11/1/2022 9:30:00 PM 17.53 63.554 8.32 2.39 -5
11/1/2022 9:45:00 PM 17.66 63.788 8.3 2.42 -5
11/1/2022 10:00:00 PM 17.9 64.22 8.29 2.48 -5
11/1/2022 10:15:00 PM 17.41 63.338 8.27 2.45 -5
11/1/2022 10:30:00 PM 18.03 64.454 8.25 2.5 -5
11/1/2022 10:45:00 PM 17.66 63.788 8.24 2.37 -5
11/1/2022 11:00:00 PM 17.66 63.788 8.23 2.46 -5
11/1/2022 11:15:00 PM 18.03 64.454 8.21 2.42 -5
11/1/2022 11:30:00 PM 17.53 63.554 8.2 2.43 -5
11/1/2022 11:45:00 PM 18.03 64.454 8.19 2.45 -5
11/2/2022 12:00:00 AM 17.66 63.788 8.18 2.55 -5
11/2/2022 12:15:00 AM 17.66 63.788 8.16 2.45 -5
11/2/2022 12:30:00 AM 18.26 64.868 8.14 2.39 -5
11/2/2022 12:45:00 AM 17.41 63.338 8.12 2.46 -5
11/2/2022 1:00:00 AM 18.03 64.454 8.09 2.44 -5
11/2/2022 1:15:00 AM 17.9 64.22 8.06 2.49 -5
11/2/2022 1:30:00 AM 17.58 63.644 8.03 2.42 -5
11/2/2022 1:45:00 AM 18.03 64.454 7.99 2.45 -5
11/2/2022 2:00:00 AM 17.53 63.554 7.95 2.58 -5
11/2/2022 2:15:00 AM 17.79 64.022 7.91 2.46 -5
11/2/2022 2:30:00 AM 18.03 64.454 7.87 2.47 -5
11/2/2022 2:45:00 AM 17.53 63.554 7.83 2.47 -5
11/2/2022 3:00:00 AM 18.03 64.454 7.8 2.49 -5
11/2/2022 3:15:00 AM 17.66 63.788 7.76 2.5 -5
11/2/2022 3:30:00 AM 17.53 63.554 7.73 2.5 -5
11/2/2022 3:45:00 AM 18.15 64.67 7.71 2.46 -5
11/2/2022 4:00:00 AM 17.53 63.554 7.68 2.61 -5
11/2/2022 4:15:00 AM 17.79 64.022 7.66 2.49 -5
11/2/2022 4:30:00 AM 18.03 64.454 7.65 2.44 -5
11/2/2022 4:45:00 AM 17.41 63.338 7.64 2.51 -5
11/2/2022 5:00:00 AM 17.9 64.22 7.63 2.58 -5
11/2/2022 5:15:00 AM 17.79 64.022 7.62 2.49 -5
11/2/2022 5:30:00 AM 17.53 63.554 7.61 2.54 -5
11/2/2022 5:45:00 AM 18.03 64.454 7.6 2.52 -5
11/2/2022 6:00:00 AM 17.53 63.554 7.6 2.7 -5
11/2/2022 6:15:00 AM 17.53 63.554 7.6 2.56 -5
11/2/2022 6:30:00 AM 18.03 64.454 7.59 2.58 -5
11/2/2022 6:45:00 AM 17.41 63.338 7.59 2.56 -5
11/2/2022 7:00:00 AM 17.53 63.554 7.59 2.58 -5
11/2/2022 7:15:00 AM 18.03 64.454 7.59 2.56 -5
11/2/2022 7:30:00 AM 16.54 61.772 7.6 2.67 -5
11/2/2022 7:45:00 AM 16.92 62.456 7.63 2.54 -5
11/2/2022 8:00:00 AM 16.92 62.456 7.67 2.67 -5
11/2/2022 8:15:00 AM 16.17 61.106 7.65 2.43 -5
11/2/2022 8:30:00 AM 16.66 61.988 7.65 2.43 -5
11/2/2022 8:45:00 AM 16.78 62.204 7.64 2.4 -5
11/2/2022 9:00:00 AM 16.4 61.52 7.63 2.44 -5
11/2/2022 9:15:00 AM 16.4 61.52 7.65 2.37 -5
11/2/2022 9:30:00 AM 16.54 61.772 7.66 2.34 -5
11/2/2022 9:45:00 AM 16.39 61.502 7.66 2.36 -5
11/2/2022 10:00:00 AM 16.66 61.988 7.69 2.42 -5
11/2/2022 10:15:00 AM 16.66 61.988 7.72 2.32 -5
11/2/2022 10:30:00 AM 16.4 61.52 7.74 2.31 -5
11/2/2022 10:45:00 AM 16.66 61.988 7.79 2.33 -5
11/2/2022 11:00:00 AM 16.92 62.456 7.84 2.37 -5
11/2/2022 11:15:00 AM 16.4 61.52 7.88 2.32 -5
11/2/2022 11:30:00 AM 16.66 61.988 7.96 2.31 -5
11/2/2022 11:45:00 AM 17.16 62.888 8 2.3 -5
11/2/2022 12:00:00 PM 16.54 61.772 8.02 2.33 -5
11/2/2022 12:15:00 PM 16.92 62.456 8.06 2.28 -5
11/2/2022 12:30:00 PM 17.16 62.888 8.1 2.28 -5
11/2/2022 12:45:00 PM 16.66 61.988 8.13 2.3 -5
11/2/2022 1:00:00 PM 17.03 62.654 8.18 2.29 -5
11/2/2022 1:15:00 PM 17.29 63.122 8.22 2.29 -5
11/2/2022 1:30:00 PM 16.78 62.204 8.28 2.29 -5
11/2/2022 1:45:00 PM 17.03 62.654 8.33 2.28 -5
11/2/2022 2:00:00 PM 17.66 63.788 8.37 2.25 -5
11/2/2022 2:15:00 PM 16.92 62.456 8.41 2.23 -5
11/2/2022 2:30:00 PM 17.41 63.338 8.44 2.27 -5
11/2/2022 2:45:00 PM 17.66 63.788 8.47 2.3 -5
11/2/2022 3:00:00 PM 17.16 62.888 8.5 2.23 -5
11/2/2022 3:15:00 PM 17.53 63.554 8.52 2.24 -5
11/2/2022 3:30:00 PM 17.41 63.338 8.54 2.27 -5
11/2/2022 3:45:00 PM 17.29 63.122 8.55 2.94 -5
11/2/2022 4:00:00 PM 17.79 64.022 8.56 2.5 -5
11/2/2022 4:15:00 PM 17.03 62.654 8.58 2.56 -5
11/2/2022 4:30:00 PM 17.53 63.554 8.59 2.3 -5
11/2/2022 4:45:00 PM 17.16 62.888 8.6 2.39 -5
11/2/2022 5:00:00 PM 17.29 63.122 8.62 2.29 -5
11/2/2022 5:15:00 PM 17.79 64.022 8.64 2.28 -5
11/2/2022 5:30:00 PM 17.29 63.122 8.65 2.35 -5
11/2/2022 5:45:00 PM 17.79 64.022 8.66 2.32 -5
11/2/2022 6:00:00 PM 17.41 63.338 8.65 2.3 -5
11/2/2022 6:15:00 PM 17.53 63.554 8.65 2.33 -5
11/2/2022 6:30:00 PM 17.9 64.22 8.65 2.3 -5
11/2/2022 6:45:00 PM 17.29 63.122 8.65 2.37 -5
11/2/2022 7:00:00 PM 17.63 63.734 8.64 2.38 -5
11/2/2022 7:15:00 PM 17.66 63.788 8.63 2.34 -5
11/2/2022 7:30:00 PM 17.41 63.338 8.62 2.38 -5
11/2/2022 7:45:00 PM 17.9 64.22 8.6 2.39 -5
11/2/2022 8:00:00 PM 17.29 63.122 8.57 2.43 -5
11/2/2022 8:15:00 PM 17.29 63.122 8.53 2.36 -5
11/2/2022 8:30:00 PM 17.79 64.022 8.51 2.4 -5
11/2/2022 8:45:00 PM 17.29 63.122 8.47 2.42 -5
11/2/2022 9:00:00 PM 17.53 63.554 8.46 2.48 -5
11/2/2022 9:15:00 PM 17.41 63.338 8.45 2.39 -5
11/2/2022 9:30:00 PM 17.16 62.888 8.43 2.43 -5
11/2/2022 9:45:00 PM 17.41 63.338 8.41 2.43 -5
11/2/2022 10:00:00 PM 17.41 63.338 8.4 2.49 -5
11/2/2022 10:15:00 PM 16.92 62.456 8.37 2.46 -5
11/2/2022 10:30:00 PM 17.41 63.338 8.36 2.43 -5
11/2/2022 10:45:00 PM 17.03 62.654 8.34 2.47 -5
11/2/2022 11:00:00 PM 17.16 62.888 8.31 2.54 -5
11/2/2022 11:15:00 PM 17.53 63.554 8.3 2.41 -5
11/2/2022 11:30:00 PM 16.65 61.97 8.27 2.42 -5
11/2/2022 11:45:00 PM 17.03 62.654 8.25 2.44 -5
11/3/2022 12:00:00 AM 17.53 63.554 8.23 2.45 -5
11/3/2022 12:15:00 AM 16.78 62.204 8.21 2.47 -5
11/3/2022 12:30:00 AM 17.03 62.654 8.18 2.5 -5
11/3/2022 12:45:00 AM 17.42 63.356 8.16 2.46 -5
11/3/2022 1:00:00 AM 16.66 61.988 8.12 2.49 -5
11/3/2022 1:15:00 AM 17.16 62.888 8.09 2.48 -5
11/3/2022 1:30:00 AM 17.41 63.338 8.06 2.46 -5
11/3/2022 1:45:00 AM 16.78 62.204 8.01 2.65 -5
11/3/2022 2:00:00 AM 17.29 63.122 7.97 2.49 -5
11/3/2022 2:15:00 AM 17.29 63.122 7.94 2.47 -5
11/3/2022 2:30:00 AM 16.78 62.204 7.89 2.5 -5
11/3/2022 2:45:00 AM 17.16 62.888 7.85 2.51 -5
11/3/2022 3:00:00 AM 17.41 63.338 7.81 2.55 -5
11/3/2022 3:15:00 AM 16.78 62.204 7.77 2.48 -5
11/3/2022 3:30:00 AM 17.16 62.888 7.74 2.51 -5
11/3/2022 3:45:00 AM 17.29 63.122 7.71 2.5 -5
11/3/2022 4:00:00 AM 16.66 61.988 7.69 2.51 -5
11/3/2022 4:15:00 AM 17.03 62.654 7.66 2.48 -5
11/3/2022 4:30:00 AM 17.16 62.888 7.65 2.51 -5
11/3/2022 4:45:00 AM 17.16 62.888 7.64 2.52 -5
11/3/2022 5:00:00 AM 16.92 62.456 7.62 2.56 -5
11/3/2022 5:15:00 AM 17.16 62.888 7.61 2.53 -5
11/3/2022 5:30:00 AM 17.53 63.554 7.59 2.52 -5
11/3/2022 5:45:00 AM 16.66 61.988 7.58 2.54 -5
11/3/2022 6:00:00 AM 16.92 62.456 7.56 2.52 -5
11/3/2022 6:15:00 AM 17.53 63.554 7.55 2.52 -5
11/3/2022 6:30:00 AM 17.41 63.338 7.54 2.5 -5
11/3/2022 6:45:00 AM 16.78 62.204 7.53 2.52 -5
11/3/2022 7:00:00 AM 16.92 62.456 7.52 2.53 -5
11/3/2022 7:15:00 AM 17.41 63.338 7.52 2.52 -5
11/3/2022 7:30:00 AM 17.53 63.554 7.52 2.54 -5
11/3/2022 7:45:00 AM 17.53 63.554 7.51 2.52 -5
11/3/2022 8:00:00 AM 17.16 62.888 7.5 2.53 -5
11/3/2022 8:15:00 AM 16.92 62.456 7.49 2.5 -5
11/3/2022 8:30:00 AM 17.03 62.654 7.49 2.5 -5
11/3/2022 8:45:00 AM 17.29 63.122 7.48 2.52 -5
11/3/2022 9:00:00 AM 17.29 63.122 7.48 2.45 -5
11/3/2022 9:15:00 AM 16.92 62.456 7.5 2.48 -5
11/3/2022 9:30:00 AM 16.54 61.772 7.5 2.45 -5
11/3/2022 9:45:00 AM 16.78 62.204 7.52 2.49 -5
11/3/2022 10:00:00 AM 17.03 62.654 7.53 2.42 -5
11/3/2022 10:15:00 AM 17.16 62.888 7.56 2.39 -5
11/3/2022 10:30:00 AM 17.41 63.338 7.59 2.4 -5
11/3/2022 10:45:00 AM 17.42 63.356 7.62 2.45 -5
11/3/2022 11:00:00 AM 17.29 63.122 7.66 2.37 -5
11/3/2022 11:15:00 AM 17.29 63.122 7.7 2.35 -5
11/3/2022 11:30:00 AM 16.54 61.772 7.74 2.36 -5
11/3/2022 11:45:00 AM 17.03 62.654 7.79 2.41 -5
11/3/2022 12:00:00 PM 17.41 63.338 7.86 2.35 -5
11/3/2022 12:15:00 PM 17.29 63.122 7.9 2.31 -5
11/3/2022 12:30:00 PM 16.92 62.456 7.94 2.4 -5
11/3/2022 12:45:00 PM 17.16 62.888 7.97 2.39 -5
11/3/2022 1:00:00 PM 17.29 63.122 8 2.38 -5
11/3/2022 1:15:00 PM 17.66 63.788 8.04 2.32 -5
11/3/2022 1:30:00 PM 17.16 62.888 8.07 2.41 -5
11/3/2022 1:45:00 PM 17.53 63.554 8.11 2.35 -5
11/3/2022 2:00:00 PM 17.66 63.788 8.15 2.32 -5
11/3/2022 2:15:00 PM 17.16 62.888 8.18 2.38 -5
11/3/2022 2:30:00 PM 17.75 63.95 8.2 2.33 -5
11/3/2022 2:45:00 PM 17.79 64.022 8.21 2.4 -5
11/3/2022 3:00:00 PM 17.53 63.554 8.24 2.33 -5
11/3/2022 3:15:00 PM 18.03 64.454 8.26 2.3 -5
11/3/2022 3:30:00 PM 17.79 64.022 8.28 2.32 -5
11/3/2022 3:45:00 PM 17.53 63.554 8.29 2.3 -5
11/3/2022 4:00:00 PM 18.03 64.454 8.31 2.31 -5
11/3/2022 4:15:00 PM 17.66 63.788 8.33 2.31 -5
11/3/2022 4:30:00 PM 17.79 64.022 8.34 2.3 -5
11/3/2022 4:45:00 PM 18.26 64.868 8.35 2.35 -5
11/3/2022 5:00:00 PM 17.66 63.788 8.36 2.3 -5
11/3/2022 5:15:00 PM 18.03 64.454 8.37 2.28 -5
11/3/2022 5:30:00 PM 17.79 64.022 8.38 2.32 -5
11/3/2022 5:45:00 PM 17.66 63.788 8.39 2.32 -5
11/3/2022 6:00:00 PM 18.15 64.67 8.4 2.28 -5
11/3/2022 6:15:00 PM 17.41 63.338 8.41 2.3 -5
11/3/2022 6:30:00 PM 17.9 64.22 8.42 2.34 -5
11/3/2022 6:45:00 PM 18.03 64.454 8.43 2.39 -5
11/3/2022 7:00:00 PM 17.66 63.788 8.42 2.34 -5
11/3/2022 7:15:00 PM 18.26 64.868 8.42 2.39 -5
11/3/2022 7:30:00 PM 17.53 63.554 8.41 2.37 -5
11/3/2022 7:45:00 PM 17.9 64.22 8.39 2.45 -5
11/3/2022 8:00:00 PM 17.53 63.554 8.38 2.4 -5
11/3/2022 8:15:00 PM 17.29 63.122 8.36 2.45 -5
11/3/2022 8:30:00 PM 17.9 64.22 8.35 2.43 -5
11/3/2022 8:45:00 PM 17.53 63.554 8.33 2.5 -5
11/3/2022 9:00:00 PM 17.66 63.788 8.32 2.5 -5
11/3/2022 9:15:00 PM 17.9 64.22 8.31 2.48 -5
11/3/2022 9:30:00 PM 17.16 62.888 8.31 2.5 -5
11/3/2022 9:45:00 PM 17.53 63.554 8.3 2.5 -5
11/3/2022 10:00:00 PM 17.53 63.554 8.29 2.49 -5
11/3/2022 10:15:00 PM 17.41 63.338 8.29 2.5 -5
11/3/2022 10:30:00 PM 17.79 64.022 8.28 2.47 -5
11/3/2022 10:45:00 PM 17.16 62.888 8.28 2.54 -5
11/3/2022 11:00:00 PM 17.41 63.338 8.27 2.51 -5
11/3/2022 11:15:00 PM 17.79 64.022 8.26 2.49 -5
11/3/2022 11:30:00 PM 17.16 62.888 8.26 2.48 -5
11/3/2022 11:45:00 PM 17.53 63.554 8.26 2.52 -5
11/4/2022 12:00:00 AM 17.53 63.554 8.28 2.51 -5
11/4/2022 12:15:00 AM 17.16 62.888 8.23 2.54 -5
11/4/2022 12:30:00 AM 17.53 63.554 8.18 2.53 -5
11/4/2022 12:45:00 AM 17.16 62.888 8.14 2.65 -5
11/4/2022 1:00:00 AM 17.16 62.888 8.1 2.62 -5
11/4/2022 1:15:00 AM 17.53 63.554 8.08 2.58 -5
11/4/2022 1:30:00 AM 16.78 62.204 8.03 2.55 -5
11/4/2022 1:45:00 AM 17.29 63.122 8 2.59 -5
11/4/2022 2:00:00 AM 17.53 63.554 7.97 2.55 -5
11/4/2022 2:15:00 AM 16.92 62.456 7.91 2.6 -5
11/4/2022 2:30:00 AM 17.41 63.338 7.89 2.57 -5
11/4/2022 2:45:00 AM 17.53 63.554 7.86 2.68 -5
11/4/2022 3:00:00 AM 16.92 62.456 7.8 2.58 -5
11/4/2022 3:15:00 AM 17.42 63.356 7.78 2.56 -5
11/4/2022 3:30:00 AM 17.03 62.654 7.75 2.55 -5
11/4/2022 3:45:00 AM 16.92 62.456 7.7 2.56 -5
11/4/2022 4:00:00 AM 17.16 62.888 7.7 2.57 -5
11/4/2022 4:15:00 AM 17.03 62.654 7.67 2.57 -5
11/4/2022 4:30:00 AM 17.03 62.654 7.64 2.57 -5
11/4/2022 4:45:00 AM 17.53 63.554 7.63 2.69 -5
11/4/2022 5:00:00 AM 16.92 62.456 7.61 2.58 -5
11/4/2022 5:15:00 AM 16.92 62.456 7.58 2.55 -5
11/4/2022 5:30:00 AM 17.29 63.122 7.58 2.56 -5
11/4/2022 5:45:00 AM 17.03 62.654 7.57 2.59 -5
11/4/2022 6:00:00 AM 16.78 62.204 7.54 2.57 -5
11/4/2022 6:15:00 AM 17.29 63.122 7.54 2.57 -5
11/4/2022 6:30:00 AM 17.41 63.338 7.54 2.58 -5
11/4/2022 6:45:00 AM 16.54 61.772 7.5 2.73 -5
11/4/2022 7:00:00 AM 16.99 62.582 7.51 2.58 -5
11/4/2022 7:15:00 AM 17.29 63.122 7.5 2.56 -5
11/4/2022 7:30:00 AM 17.29 63.122 7.49 2.56 -5
11/4/2022 7:45:00 AM 16.54 61.772 7.46 2.63 -5
11/4/2022 8:00:00 AM 16.92 62.456 7.47 2.57 -5
11/4/2022 8:15:00 AM 17.29 63.122 7.48 2.53 -5
11/4/2022 8:30:00 AM 17.03 62.654 7.49 2.53 -5
11/4/2022 8:45:00 AM 16.53 61.754 7.48 2.64 -5
11/4/2022 9:00:00 AM 16.66 61.988 7.48 2.51 -5
11/4/2022 9:15:00 AM 16.92 62.456 7.5 2.5 -5
11/4/2022 9:30:00 AM 17.16 62.888 7.52 2.5 -5
11/4/2022 9:45:00 AM 16.92 62.456 7.54 2.5 -5
11/4/2022 10:00:00 AM 16.54 61.772 7.55 2.46 -5
11/4/2022 10:15:00 AM 16.78 62.204 7.56 2.45 -5
11/4/2022 10:30:00 AM 17.03 62.654 7.59 2.42 -5
11/4/2022 10:45:00 AM 17.16 62.888 7.63 2.47 -5
11/4/2022 11:00:00 AM 16.4 61.52 7.68 2.41 -5
11/4/2022 11:15:00 AM 16.66 61.988 7.72 2.4 -5
11/4/2022 11:30:00 AM 17.16 62.888 7.76 2.46 -5
11/4/2022 11:45:00 AM 16.54 61.772 7.8 2.42 -5
11/4/2022 12:00:00 PM 16.78 62.204 7.83 2.45 -5
11/4/2022 12:15:00 PM 17.03 62.654 7.86 2.4 -5
11/4/2022 12:30:00 PM 17.29 63.122 7.88 2.4 -5
11/4/2022 12:45:00 PM 16.66 61.988 7.91 2.41 -5
11/4/2022 1:00:00 PM 17.29 63.122 7.96 2.42 -5
11/4/2022 1:15:00 PM 17.41 63.338 7.99 2.43 -5
11/4/2022 1:30:00 PM 16.78 62.204 8.05 2.47 -5
11/4/2022 1:45:00 PM 17.29 63.122 8.08 2.47 -5
11/4/2022 2:00:00 PM 17.79 64.022 8.12 2.43 -5
11/4/2022 2:15:00 PM 17.03 62.654 8.14 2.39 -5
11/4/2022 2:30:00 PM 17.53 63.554 8.16 2.42 -5
11/4/2022 2:45:00 PM 17.79 64.022 8.18 2.43 -5
11/4/2022 3:00:00 PM 17.16 62.888 8.21 2.45 -5
11/4/2022 3:15:00 PM 17.66 63.788 8.22 2.47 -5
11/4/2022 3:30:00 PM 17.9 64.22 8.25 2.46 -5
11/4/2022 3:45:00 PM 17.53 63.554 8.27 2.49 -5
11/4/2022 4:00:00 PM 17.9 64.22 8.29 2.42 -5
11/4/2022 4:15:00 PM 17.53 63.554 8.31 2.4 -5
11/4/2022 4:30:00 PM 17.66 63.788 8.33 2.42 -5
11/4/2022 4:45:00 PM 18.15 64.67 8.34 2.43 -5
11/4/2022 5:00:00 PM 17.53 63.554 8.36 2.46 -5
11/4/2022 5:15:00 PM 17.9 64.22 8.37 2.42 -5
11/4/2022 5:30:00 PM 17.53 63.554 8.38 2.44 -5
11/4/2022 5:45:00 PM 17.79 64.022 8.38 2.46 -5
11/4/2022 6:00:00 PM 18.03 64.454 8.39 2.4 -5
11/4/2022 6:15:00 PM 17.53 63.554 8.39 2.42 -5
11/4/2022 6:30:00 PM 18.03 64.454 8.39 2.48 -5
11/4/2022 6:45:00 PM 17.66 63.788 8.39 2.49 -5
11/4/2022 7:00:00 PM 17.66 63.788 8.39 2.53 -5
11/4/2022 7:15:00 PM 18.03 64.454 8.38 2.49 -5
11/4/2022 7:30:00 PM 17.41 63.338 8.36 2.51 -5
11/4/2022 7:45:00 PM 17.79 64.022 8.35 2.53 -5
11/4/2022 8:00:00 PM 17.66 63.788 8.33 2.51 -5
11/4/2022 8:15:00 PM 17.53 63.554 8.32 2.53 -5
11/4/2022 8:30:00 PM 17.9 64.22 8.3 2.55 -5
11/4/2022 8:45:00 PM 17.41 63.338 8.28 2.65 -5
11/4/2022 9:00:00 PM 17.79 64.022 8.27 2.6 -5
11/4/2022 9:15:00 PM 17.53 63.554 8.26 2.59 -5
11/4/2022 9:30:00 PM 17.66 63.788 8.25 2.59 -5
11/4/2022 9:45:00 PM 17.66 63.788 8.23 2.64 -5
11/4/2022 10:00:00 PM 17.53 63.554 8.22 2.62 -5
11/4/2022 10:15:00 PM 17.79 64.022 8.2 2.58 -5
11/4/2022 10:30:00 PM 17.16 62.888 8.19 2.6 -5
11/4/2022 10:45:00 PM 17.53 63.554 8.17 2.7 -5
11/4/2022 11:00:00 PM 17.29 63.122 8.16 2.59 -5
11/4/2022 11:15:00 PM 17.29 63.122 8.14 2.61 -5
11/4/2022 11:30:00 PM 17.79 64.022 8.12 2.63 -5
11/4/2022 11:45:00 PM 17.16 62.888 8.11 2.72 -5
11/5/2022 12:00:00 AM 17.53 63.554 8.09 2.57 -5
11/5/2022 12:15:00 AM 17.41 63.338 8.08 2.65 -5
11/5/2022 12:30:00 AM 17.41 63.338 8.06 2.63 -5
11/5/2022 12:45:00 AM 17.9 64.22 8.03 2.69 -5
11/5/2022 1:00:00 AM 16.92 62.456 8.01 2.59 -5
11/5/2022 1:15:00 AM 17.53 63.554 7.97 2.64 -5
11/5/2022 1:30:00 AM 17.26 63.068 7.94 2.62 -5
11/5/2022 1:45:00 AM 17.41 63.338 7.9 2.69 -5
11/5/2022 2:00:00 AM 17.79 64.022 7.86 2.59 -5
11/5/2022 2:15:00 AM 17.16 62.888 7.82 2.6 -5
11/5/2022 2:30:00 AM 17.53 63.554 7.78 2.59 -5
11/5/2022 2:45:00 AM 17.29 63.122 7.74 2.66 -5
11/5/2022 3:00:00 AM 17.41 63.338 7.7 2.64 -5
11/5/2022 3:15:00 AM 17.79 64.022 7.66 2.63 -5
11/5/2022 3:30:00 AM 17.29 63.122 7.63 2.66 -5
11/5/2022 3:45:00 AM 17.41 63.338 7.59 2.74 -5
11/5/2022 4:00:00 AM 17.41 63.338 7.57 2.63 -5
11/5/2022 4:15:00 AM 17.53 63.554 7.54 2.68 -5
11/5/2022 4:30:00 AM 17.79 64.022 7.52 2.68 -5
11/5/2022 4:45:00 AM 17.29 63.122 7.5 2.69 -5
11/5/2022 5:00:00 AM 17.79 64.022 7.49 2.7 -5
11/5/2022 5:15:00 AM 17.66 63.788 7.47 2.69 -5
11/5/2022 5:30:00 AM 17.41 63.338 7.46 2.73 -5
11/5/2022 5:45:00 AM 17.9 64.22 7.45 2.75 -5
11/5/2022 6:00:00 AM 17.41 63.338 7.44 2.68 -5
11/5/2022 6:15:00 AM 17.79 64.022 7.43 2.67 -5
11/5/2022 6:30:00 AM 17.66 63.788 7.42 2.6 -5
11/5/2022 6:45:00 AM 17.53 63.554 7.41 2.64 -5
11/5/2022 7:00:00 AM 17.9 64.22 7.41 2.68 -5
11/5/2022 7:15:00 AM 17.29 63.122 7.4 2.62 -5
11/5/2022 7:30:00 AM 17.79 64.022 7.39 2.73 -5
11/5/2022 7:45:00 AM 17.53 63.554 7.39 2.61 -5
11/5/2022 8:00:00 AM 17.41 63.338 7.38 2.64 -5
11/5/2022 8:15:00 AM 17.9 64.22 7.38 2.63 -5
11/5/2022 8:30:00 AM 17.29 63.122 7.38 2.64 -5
11/5/2022 8:45:00 AM 17.53 63.554 7.38 2.59 -5
11/5/2022 9:00:00 AM 17.66 63.788 7.37 2.59 -5
11/5/2022 9:15:00 AM 17.41 63.338 7.37 2.59 -5
11/5/2022 9:30:00 AM 17.69 63.842 7.37 2.73 -5
11/5/2022 9:45:00 AM 17.41 63.338 7.37 2.55 -5
11/5/2022 10:00:00 AM 17.66 63.788 7.37 2.68 -5
11/5/2022 10:15:00 AM 17.79 64.022 7.38 2.61 -5
11/5/2022 10:30:00 AM 17.29 63.122 7.39 2.59 -5
11/5/2022 10:45:00 AM 17.9 64.22 7.4 2.57 -5
11/5/2022 11:00:00 AM 17.53 63.554 7.41 2.52 -5
11/5/2022 11:15:00 AM 17.53 63.554 7.44 2.54 -5
11/5/2022 11:30:00 AM 17.9 64.22 7.46 2.57 -5
11/5/2022 11:45:00 AM 17.66 63.788 7.48 2.51 -5
11/5/2022 12:00:00 PM 18.15 64.67 7.5 2.59 -5
11/5/2022 12:15:00 PM 17.9 64.22 7.53 2.58 -5
11/5/2022 12:30:00 PM 17.9 64.22 7.55 2.57 -5
11/5/2022 12:45:00 PM 18.03 64.454 7.57 2.46 -5
11/5/2022 1:00:00 PM 17.9 64.22 7.6 2.49 -5
11/5/2022 1:15:00 PM 18.26 64.868 7.63 2.42 -5
11/5/2022 1:30:00 PM 18.03 64.454 7.67 2.62 -5
11/5/2022 1:45:00 PM 18.15 64.67 7.72 2.53 -5
11/5/2022 2:00:00 PM 18.41 65.138 7.8 2.51 -5
11/5/2022 2:15:00 PM 18.26 64.868 7.86 2.58 -5
11/5/2022 2:30:00 PM 18.53 65.354 7.92 2.69 -5
11/5/2022 2:45:00 PM 18.14 64.652 7.96 2.86 -5
11/5/2022 3:00:00 PM 18.52 65.336 7.99 2.92 -5
11/5/2022 3:15:00 PM 18.63 65.534 8.01 2.77 -5
11/5/2022 3:30:00 PM 18.15 64.67 8.02 2.86 -5
11/5/2022 3:45:00 PM 18.63 65.534 8.04 2.71 -5
11/5/2022 4:00:00 PM 18.15 64.67 8.05 2.6 -5
11/5/2022 4:15:00 PM 18.52 65.336 8.06 2.62 -5
11/5/2022 4:30:00 PM 18.78 65.804 8.08 2.56 -5
11/5/2022 4:45:00 PM 18.26 64.868 8.12 2.54 -5
11/5/2022 5:00:00 PM 18.78 65.804 8.2 2.6 -5
11/5/2022 5:15:00 PM 18.41 65.138 8.24 2.63 -5
11/5/2022 5:30:00 PM 18.63 65.534 8.26 2.73 -5
11/5/2022 5:45:00 PM 18.63 65.534 8.26 2.56 -5
11/5/2022 6:00:00 PM 18.52 65.336 8.24 2.56 -5
11/5/2022 6:15:00 PM 18.78 65.804 8.23 2.58 -5
11/5/2022 6:30:00 PM 18.41 65.138 8.24 2.59 -5
11/5/2022 6:45:00 PM 18.63 65.534 8.25 2.56 -5
11/5/2022 7:00:00 PM 18.63 65.534 8.26 2.6 -5
11/5/2022 7:15:00 PM 18.63 65.534 8.27 2.67 -5
11/5/2022 7:30:00 PM 18.91 66.038 8.27 2.74 -5
11/5/2022 7:45:00 PM 18.41 65.138 8.24 2.63 -5
11/5/2022 8:00:00 PM 18.78 65.804 8.23 2.67 -5
11/5/2022 8:15:00 PM 18.64 65.552 8.22 2.65 -5
11/5/2022 8:30:00 PM 18.78 65.804 8.2 2.67 -5
11/5/2022 8:45:00 PM 18.78 65.804 8.2 2.64 -5
11/5/2022 9:00:00 PM 18.63 65.534 8.18 2.69 -5
11/5/2022 9:15:00 PM 18.78 65.804 8.17 2.67 -5
11/5/2022 9:30:00 PM 18.63 65.534 8.16 2.82 -5
11/5/2022 9:45:00 PM 18.78 65.804 8.13 2.71 -5
11/5/2022 10:00:00 PM 18.63 65.534 8.12 2.71 -5
11/5/2022 10:15:00 PM 18.78 65.804 8.09 2.78 -5
11/5/2022 10:30:00 PM 18.78 65.804 8.07 2.78 -5
11/5/2022 10:45:00 PM 18.52 65.336 8.04 2.76 -5
11/5/2022 11:00:00 PM 18.91 66.038 8.01 2.78 -5
11/5/2022 11:15:00 PM 18.78 65.804 7.98 2.79 -5
11/5/2022 11:30:00 PM 18.63 65.534 7.96 2.93 -5
11/5/2022 11:45:00 PM 18.78 65.804 7.94 2.78 -5
11/6/2022 12:00:00 AM 18.52 65.336 7.92 2.79 -5
11/6/2022 12:15:00 AM 18.78 65.804 7.89 2.79 -5
11/6/2022 12:30:00 AM 18.78 65.804 7.87 2.91 -5
11/6/2022 12:45:00 AM 18.78 65.804 7.84 2.9 -5
11/6/2022 1:00:00 AM 18.91 66.038 7.82 2.9 -5
11/6/2022 1:15:00 AM 18.78 65.804 7.79 2.88 -5
11/6/2022 1:30:00 AM 19.04 66.272 7.76 3.06 -5
11/6/2022 1:45:00 AM 18.78 65.804 7.73 2.87 -5
11/6/2022 2:00:00 AM 18.91 66.038 7.7 2.92 -5
11/6/2022 2:15:00 AM 18.91 66.038 7.67 2.93 -5
11/6/2022 2:30:00 AM 18.78 65.804 7.64 2.94 -5
11/6/2022 2:45:00 AM 19.29 66.722 7.61 2.91 -5
11/6/2022 3:00:00 AM 18.78 65.804 7.59 2.9 -5
11/6/2022 3:15:00 AM 18.78 65.804 7.53 2.96 -5
11/6/2022 3:30:00 AM 19.04 66.272 7.52 3.03 -5
11/6/2022 3:45:00 AM 18.78 65.804 7.52 2.91 -5
11/6/2022 4:00:00 AM 18.91 66.038 7.51 2.91 -5
11/6/2022 4:15:00 AM 19.29 66.722 7.5 2.9 -5
11/6/2022 4:30:00 AM 18.91 66.038 7.48 3.29 -5
11/6/2022 4:45:00 AM 19.29 66.722 7.47 3.06 -5
11/6/2022 5:00:00 AM 18.91 66.038 7.46 3.05 -5
11/6/2022 5:15:00 AM 19.17 66.506 7.45 3.09 -5
11/6/2022 5:30:00 AM 19.17 66.506 7.44 3.1 -5
11/6/2022 5:45:00 AM 19.17 66.506 7.43 3.07 -5
11/6/2022 6:00:00 AM 19.17 66.506 7.43 3.01 -5
11/6/2022 6:15:00 AM 19.17 66.506 7.42 2.97 -5
11/6/2022 6:30:00 AM 19.29 66.722 7.41 3.24 -5
11/6/2022 6:45:00 AM 19.04 66.272 7.4 2.95 -5
11/6/2022 7:00:00 AM 19.41 66.938 7.4 2.97 -5
11/6/2022 7:15:00 AM 18.91 66.038 7.38 2.96 -5
11/6/2022 7:30:00 AM 19.17 66.506 7.38 3.06 -5
11/6/2022 7:45:00 AM 19.17 66.506 7.37 2.89 -5
11/6/2022 8:00:00 AM 19.04 66.272 7.36 2.91 -5
11/6/2022 8:15:00 AM 19.54 67.172 7.36 2.84 -5
11/6/2022 8:30:00 AM 19.04 66.272 7.35 3.03 -5
11/6/2022 8:45:00 AM 19.41 66.938 7.35 2.85 -5
11/6/2022 9:00:00 AM 19.17 66.506 7.35 2.82 -5
11/6/2022 9:15:00 AM 19.03 66.254 7.34 2.84 -5
11/6/2022 9:30:00 AM 19.54 67.172 7.34 2.88 -5
11/6/2022 9:45:00 AM 19.03 66.254 7.34 2.77 -5
11/6/2022 10:00:00 AM 19.41 66.938 7.34 3.06 -5
11/6/2022 10:15:00 AM 19.17 66.506 7.35 2.89 -5
11/6/2022 10:30:00 AM 19.29 66.722 7.36 3.2 -5
11/6/2022 10:45:00 AM 19.54 67.172 7.39 2.83 -5
11/6/2022 11:00:00 AM 19.04 66.272 7.4 2.77 -5
11/6/2022 11:15:00 AM 19.67 67.406 7.42 2.84 -5
11/6/2022 11:30:00 AM 19.17 66.506 7.44 2.82 -5
11/6/2022 11:45:00 AM 19.41 66.938 7.45 2.69 -5
11/6/2022 12:00:00 PM 19.41 66.938 7.48 2.72 -5
11/6/2022 12:15:00 PM 19.17 66.506 7.51 2.71 -5
11/6/2022 12:30:00 PM 19.67 67.406 7.53 2.84 -5
11/6/2022 12:45:00 PM 19.17 66.506 7.56 2.68 -5
11/6/2022 1:00:00 PM 19.41 66.938 7.6 2.65 -5
11/6/2022 1:15:00 PM 19.67 67.406 7.68 2.69 -5
11/6/2022 1:30:00 PM 19.41 66.938 7.73 2.75 -5
11/6/2022 1:45:00 PM 19.78 67.604 7.75 2.63 -5
11/6/2022 2:00:00 PM 19.29 66.722 7.74 2.67 -5
11/6/2022 2:15:00 PM 19.78 67.604 7.76 2.66 -5
11/6/2022 2:30:00 PM 19.54 67.172 7.8 2.85 -5
11/6/2022 2:45:00 PM 19.67 67.406 7.9 2.64 -5
11/6/2022 3:00:00 PM 19.78 67.604 8.01 2.66 -5
11/6/2022 3:15:00 PM 19.67 67.406 8.08 2.68 -5
11/6/2022 3:30:00 PM 20.14 68.252 8.15 2.77 -5
11/6/2022 3:45:00 PM 19.67 67.406 8.15 2.67 -5
11/6/2022 4:00:00 PM 19.92 67.856 8.11 2.7 -5
11/6/2022 4:15:00 PM 19.78 67.604 8.05 2.67 -5
11/6/2022 4:30:00 PM 19.67 67.406 8.02 2.88 -5
11/6/2022 4:45:00 PM 19.92 67.856 8.01 2.64 -5
11/6/2022 5:00:00 PM 19.54 67.172 7.99 2.69 -5
11/6/2022 5:15:00 PM 20.04 68.07201 7.98 2.73 -5
11/6/2022 5:30:00 PM 19.67 67.406 7.97 2.85 -5
11/6/2022 5:45:00 PM 19.92 67.856 7.97 2.75 -5
11/6/2022 6:00:00 PM 19.92 67.856 7.97 2.8 -5
11/6/2022 6:15:00 PM 19.67 67.406 7.96 2.8 -5
11/6/2022 6:30:00 PM 20.15 68.27 7.95 2.99 -5
11/6/2022 6:45:00 PM 19.54 67.172 7.93 2.8 -5
11/6/2022 7:00:00 PM 19.92 67.856 7.89 2.8 -5
11/6/2022 7:15:00 PM 19.78 67.604 7.86 2.83 -5
11/6/2022 7:30:00 PM 19.78 67.604 7.82 2.97 -5
11/6/2022 7:45:00 PM 19.78 67.604 7.8 2.84 -5
11/6/2022 8:00:00 PM 19.67 67.406 7.78 2.89 -5
11/6/2022 8:15:00 PM 20.04 68.07201 7.77 2.94 -5
11/6/2022 8:30:00 PM 19.67 67.406 7.76 3.15 -5
11/6/2022 8:45:00 PM 19.99 67.982 7.75 2.97 -5
11/6/2022 9:00:00 PM 19.78 67.604 7.74 3.02 -5
11/6/2022 9:15:00 PM 19.78 67.604 7.73 3.05 -5
11/6/2022 9:30:00 PM 19.92 67.856 7.71 3.17 -5
11/6/2022 9:45:00 PM 19.54 67.172 7.69 3 -5
11/6/2022 10:00:00 PM 20.04 68.07201 7.68 3.05 -5
11/6/2022 10:15:00 PM 19.54 67.172 7.66 3.02 -5
11/6/2022 10:30:00 PM 20.04 68.07201 7.64 3.37 -5
11/6/2022 10:45:00 PM 19.67 67.406 7.63 3.06 -5
11/6/2022 11:00:00 PM 19.78 67.604 7.61 3.06 -5
11/6/2022 11:15:00 PM 19.92 67.856 7.6 3.1 -5
11/6/2022 11:30:00 PM 19.67 67.406 7.58 3.16 -5
11/6/2022 11:45:00 PM 20.15 68.27 7.56 2.95 -5
11/7/2022 12:00:00 AM 19.67 67.406 7.55 2.96 -5
11/7/2022 12:15:00 AM 20.04 68.07201 7.53 3.01 -5
11/7/2022 12:30:00 AM 19.67 67.406 7.5 3 -5
11/7/2022 12:45:00 AM 19.92 67.856 7.48 3.09 -5
11/7/2022 1:00:00 AM 20.04 68.07201 7.46 3.04 -5
11/7/2022 1:15:00 AM 19.67 67.406 7.44 3.22 -5
11/7/2022 1:30:00 AM 20.15 68.27 7.42 3.15 -5
11/7/2022 1:45:00 AM 19.67 67.406 7.41 3 -5
11/7/2022 2:00:00 AM 20.04 68.07201 7.39 3.06 -5
11/7/2022 2:15:00 AM 19.78 67.604 7.38 3.01 -5
11/7/2022 2:30:00 AM 19.92 67.856 7.36 3.05 -5
11/7/2022 2:45:00 AM 19.92 67.856 7.34 3.02 -5
11/7/2022 3:00:00 AM 19.78 67.604 7.32 3.09 -5
11/7/2022 3:15:00 AM 20.04 68.07201 7.31 3.22 -5
11/7/2022 3:30:00 AM 19.67 67.406 7.3 3.03 -5
11/7/2022 3:45:00 AM 20.04 68.07201 7.29 3.08 -5
11/7/2022 4:00:00 AM 19.92 67.856 7.27 3.16 -5
11/7/2022 4:15:00 AM 19.79 67.622 7.26 3.24 -5
11/7/2022 4:30:00 AM 20.15 68.27 7.25 3.3 -5
11/7/2022 4:45:00 AM 19.67 67.406 7.25 3.17 -5
11/7/2022 5:00:00 AM 20.15 68.27 7.24 3.17 -5
11/7/2022 5:15:00 AM 19.78 67.604 7.23 3.24 -5
11/7/2022 5:30:00 AM 19.92 67.856 7.22 3.35 -5
11/7/2022 5:45:00 AM 19.92 67.856 7.22 3.1 -5
11/7/2022 6:00:00 AM 19.67 67.406 7.21 3.17 -5
11/7/2022 6:15:00 AM 20.15 68.27 7.2 3.17 -5
11/7/2022 6:30:00 AM 19.67 67.406 7.2 3.33 -5
11/7/2022 6:45:00 AM 19.84 67.712 7.19 3.16 -5
11/7/2022 7:00:00 AM 19.92 67.856 7.19 3.13 -5
11/7/2022 7:15:00 AM 19.54 67.172 7.19 3.17 -5
11/7/2022 7:30:00 AM 19.92 67.856 7.2 3.2 -5
11/7/2022 7:45:00 AM 19.67 67.406 7.2 2.99 -5
11/7/2022 8:00:00 AM 19.67 67.406 7.2 3.04 -5
11/7/2022 8:15:00 AM 20.04 68.07201 7.2 2.98 -5
11/7/2022 8:30:00 AM 19.41 66.938 7.2 2.96 -5
11/7/2022 8:45:00 AM 19.78 67.604 7.21 2.86 -5
11/7/2022 9:00:00 AM 19.67 67.406 7.21 2.77 -5
11/7/2022 9:15:00 AM 19.41 66.938 7.22 2.97 -5
11/7/2022 9:30:00 AM 19.78 67.604 7.23 2.74 -5
11/7/2022 9:45:00 AM 19.41 66.938 7.25 2.69 -5
11/7/2022 10:00:00 AM 19.78 67.604 7.27 2.78 -5
11/7/2022 10:15:00 AM 19.92 67.856 7.3 2.74 -5
11/7/2022 10:30:00 AM 19.54 67.172 7.34 2.66 -5
11/7/2022 10:45:00 AM 20.04 68.07201 7.38 2.75 -5
11/7/2022 11:00:00 AM 19.78 67.604 7.42 2.7 -5
11/7/2022 11:15:00 AM 19.92 67.856 7.45 2.92 -5
11/7/2022 11:30:00 AM 20.15 68.27 7.49 2.69 -5
11/7/2022 11:45:00 AM 19.74 67.532 7.53 2.65 -5
11/7/2022 12:00:00 PM 20.3 68.54 7.57 2.69 -5
11/7/2022 12:15:00 PM 19.78 67.604 7.61 2.76 -5
11/7/2022 12:30:00 PM 20.04 68.07201 7.65 2.83 -5
11/7/2022 12:45:00 PM 20.41 68.738 7.7 2.76 -5
11/7/2022 1:00:00 PM 19.92 67.856 7.77 2.7 -5
11/7/2022 1:15:00 PM 20.52 68.936 7.82 2.92 -5
11/7/2022 1:30:00 PM 20.04 68.07201 7.86 2.72 -5
11/7/2022 1:45:00 PM 20.15 68.27 7.91 2.77 -5
11/7/2022 2:00:00 PM 20.67 69.206 7.96 2.76 -5
11/7/2022 2:15:00 PM 19.92 67.856 8 2.72 -5
11/7/2022 2:30:00 PM 20.52 68.936 8.03 2.7 -5
11/7/2022 2:45:00 PM 20.3 68.54 8.06 2.73 -5
11/7/2022 3:00:00 PM 20.15 68.27 8.08 2.73 -5
11/7/2022 3:15:00 PM 20.67 69.206 8.1 2.94 -5
11/7/2022 3:30:00 PM 20.04 68.07201 8.12 2.64 -5
11/7/2022 3:45:00 PM 20.52 68.936 8.14 2.68 -5
11/7/2022 4:00:00 PM 20.15 68.27 8.15 2.69 -5
11/7/2022 4:15:00 PM 20.41 68.738 8.16 2.73 -5
11/7/2022 4:30:00 PM 20.3 68.54 8.17 2.62 -5
11/7/2022 4:45:00 PM 20.15 68.27 8.17 2.64 -5
11/7/2022 5:00:00 PM 20.41 68.738 8.18 2.65 -5
11/7/2022 5:15:00 PM 19.92 67.856 8.17 2.87 -5
11/7/2022 5:30:00 PM 20.41 68.738 8.17 2.73 -5
11/7/2022 5:45:00 PM 19.92 67.856 8.17 2.66 -5
11/7/2022 6:00:00 PM 20.3 68.54 8.17 2.75 -5
11/7/2022 6:15:00 PM 19.92 67.856 8.16 2.76 -5
11/7/2022 6:30:00 PM 20.04 68.07201 8.14 2.77 -5
11/7/2022 6:45:00 PM 20.15 68.27 8.12 2.78 -5
11/7/2022 7:00:00 PM 19.67 67.406 8.1 2.81 -5
11/7/2022 7:15:00 PM 20.15 68.27 8.07 3 -5
11/7/2022 7:30:00 PM 19.54 67.172 8.04 2.91 -5
11/7/2022 7:45:00 PM 19.92 67.856 8.04 2.95 -5
11/7/2022 8:00:00 PM 19.78 67.604 8.02 2.95 -5
11/7/2022 8:15:00 PM 19.54 67.172 8.01 3.04 -5
11/7/2022 8:30:00 PM 19.92 67.856 8 3.01 -5
11/7/2022 8:45:00 PM 19.29 66.722 7.99 3.05 -5
11/7/2022 9:00:00 PM 19.78 67.604 7.98 2.99 -5
11/7/2022 9:15:00 PM 19.29 66.722 7.98 3.15 -5
11/7/2022 9:30:00 PM 19.41 66.938 7.97 3.16 -5
11/7/2022 9:45:00 PM 19.41 66.938 7.98 3.1 -5
11/7/2022 10:00:00 PM 19.29 66.722 8 3.2 -5
11/7/2022 10:15:00 PM 19.67 67.406 8.04 3.19 -5
11/7/2022 10:30:00 PM 18.78 65.804 8.06 3.12 -5
11/7/2022 10:45:00 PM 19.41 66.938 8.01 3.13 -5
11/7/2022 11:00:00 PM 18.78 65.804 7.97 3.11 -5
11/7/2022 11:15:00 PM 19.17 66.506 7.95 3.3 -5
11/7/2022 11:30:00 PM 19.04 66.272 7.92 3.03 -5
11/7/2022 11:45:00 PM 18.91 66.038 7.91 3.02 -5
11/8/2022 12:00:00 AM 19.29 66.722 7.88 3.07 -5
11/8/2022 12:15:00 AM 18.63 65.534 7.83 3.08 -5
11/8/2022 12:30:00 AM 19.04 66.272 7.81 3.03 -5
11/8/2022 12:45:00 AM 18.78 65.804 7.78 3.05 -5
11/8/2022 1:00:00 AM 18.78 65.804 7.74 3.03 -5
11/8/2022 1:15:00 AM 19.17 66.506 7.74 3.2 -5
11/8/2022 1:30:00 AM 18.52 65.336 7.69 3.03 -5
11/8/2022 1:45:00 AM 18.91 66.038 7.68 3.02 -5
11/8/2022 2:00:00 AM 18.78 65.804 7.62 3.07 -5
11/8/2022 2:15:00 AM 18.78 65.804 7.59 3.06 -5
11/8/2022 2:30:00 AM 19.04 66.272 7.59 2.99 -5
11/8/2022 2:45:00 AM 18.41 65.138 7.55 2.92 -5
11/8/2022 3:00:00 AM 18.78 65.804 7.53 2.97 -5
11/8/2022 3:15:00 AM 18.91 66.038 7.5 3.31 -5
11/8/2022 3:30:00 AM 18.41 65.138 7.47 2.96 -5
11/8/2022 3:45:00 AM 18.78 65.804 7.47 2.99 -5
11/8/2022 4:00:00 AM 18.78 65.804 7.46 3.01 -5
11/8/2022 4:15:00 AM 18.15 64.67 7.43 3.08 -5
11/8/2022 4:30:00 AM 18.52 65.336 7.42 2.99 -5
11/8/2022 4:45:00 AM 18.78 65.804 7.41 2.99 -5
11/8/2022 5:00:00 AM 18.03 64.454 7.4 3.02 -5
11/8/2022 5:15:00 AM 18.41 65.138 7.4 3.26 -5
11/8/2022 5:30:00 AM 18.63 65.534 7.4 3 -5
11/8/2022 5:45:00 AM 18.15 64.67 7.38 2.98 -5
11/8/2022 6:00:00 AM 18.41 65.138 7.39 3.01 -5
11/8/2022 6:15:00 AM 18.63 65.534 7.39 3.03 -5
11/8/2022 6:30:00 AM 18.26 64.868 7.37 3.02 -5
11/8/2022 6:45:00 AM 18.15 64.67 7.36 3.05 -5
11/8/2022 7:00:00 AM 18.41 65.138 7.36 3.01 -5
11/8/2022 7:15:00 AM 18.63 65.534 7.37 3.33 -5
11/8/2022 7:30:00 AM 17.66 63.788 7.35 2.95 -5
11/8/2022 7:45:00 AM 18.04 64.472 7.37 2.95 -5
11/8/2022 8:00:00 AM 18.26 64.868 7.37 2.94 -5
11/8/2022 8:15:00 AM 18.41 65.138 7.38 2.96 -5
11/8/2022 8:30:00 AM 17.53 63.554 7.38 2.82 -5
11/8/2022 8:45:00 AM 17.9 64.22 7.4 2.87 -5
11/8/2022 9:00:00 AM 18.03 64.454 7.42 2.79 -5
11/8/2022 9:15:00 AM 18.26 64.868 7.45 3.04 -5
11/8/2022 9:30:00 AM 18.03 64.454 7.48 2.97 -5
11/8/2022 9:45:00 AM 17.66 63.788 7.49 3.02 -5
11/8/2022 10:00:00 AM 17.9 64.22 7.53 3.07 -5
11/8/2022 10:15:00 AM 18.26 64.868 7.58 3.23 -5
11/8/2022 10:30:00 AM 18.41 65.138 7.63 2.91 -5
11/8/2022 10:45:00 AM 18.41 65.138 7.66 2.89 -5
11/8/2022 11:00:00 AM 17.66 63.788 7.68 2.87 -5
11/8/2022 11:15:00 AM 18.03 64.454 7.72 3.06 -5
11/8/2022 11:30:00 AM 18.15 64.67 7.73 2.87 -5
11/8/2022 11:45:00 AM 18.41 65.138 7.77 2.89 -5
11/8/2022 12:00:00 PM 18.63 65.534 7.82 2.91 -5
11/8/2022 12:15:00 PM 18.15 64.67 7.86 2.86 -5
11/8/2022 12:30:00 PM 17.9 64.22 7.89 2.73 -5
11/8/2022 12:45:00 PM 18.26 64.868 7.92 2.77 -5
11/8/2022 1:00:00 PM 18.41 65.138 7.97 2.76 -5
11/8/2022 1:15:00 PM 18.63 65.534 8.04 2.7 -5
11/8/2022 1:30:00 PM 17.79 64.022 8.05 2.72 -5
11/8/2022 1:45:00 PM 17.9 64.22 8.11 2.67 -5
11/8/2022 2:00:00 PM 18.41 65.138 8.14 2.77 -5
11/8/2022 2:15:00 PM 18.52 65.336 8.17 2.77 -5
11/8/2022 2:30:00 PM 17.79 64.022 8.17 2.69 -5
11/8/2022 2:45:00 PM 18.15 64.67 8.2 2.73 -5
11/8/2022 3:00:00 PM 18.52 65.336 8.23 2.67 -5
11/8/2022 3:15:00 PM 17.79 64.022 8.21 2.81 -5
11/8/2022 3:30:00 PM 18.03 64.454 8.24 2.68 -5
11/8/2022 3:45:00 PM 18.26 64.868 8.24 2.68 -5
11/8/2022 4:00:00 PM 17.9 64.22 8.24 2.69 -5
11/8/2022 4:15:00 PM 17.9 64.22 8.24 2.79 -5
11/8/2022 4:30:00 PM 18.26 64.868 8.25 2.68 -5
11/8/2022 4:45:00 PM 17.9 64.22 8.25 2.66 -5
11/8/2022 5:00:00 PM 17.9 64.22 8.26 2.73 -5
11/8/2022 5:15:00 PM 18.03 64.454 8.26 2.99 -5
11/8/2022 5:30:00 PM 17.66 63.788 8.26 2.81 -5
11/8/2022 5:45:00 PM 17.66 63.788 8.28 3 -5
11/8/2022 6:00:00 PM 18.15 64.67 8.29 2.98 -5
11/8/2022 6:15:00 PM 17.66 63.788 8.26 3.02 -5
11/8/2022 6:30:00 PM 17.73 63.914 8.25 2.84 -5
11/8/2022 6:45:00 PM 18.03 64.454 8.24 2.86 -5
11/8/2022 7:00:00 PM 17.66 63.788 8.22 2.85 -5
11/8/2022 7:15:00 PM 17.42 63.356 8.2 3.23 -5
11/8/2022 7:30:00 PM 17.79 64.022 8.18 2.89 -5
11/8/2022 7:45:00 PM 17.66 63.788 8.16 2.94 -5
11/8/2022 8:00:00 PM 17.29 63.122 8.14 3.01 -5
11/8/2022 8:15:00 PM 17.79 64.022 8.12 3.1 -5
11/8/2022 8:30:00 PM 17.53 63.554 8.1 2.97 -5
11/8/2022 8:45:00 PM 17.16 62.888 8.08 3.01 -5
11/8/2022 9:00:00 PM 17.53 63.554 8.07 2.97 -5
11/8/2022 9:15:00 PM 17.41 63.338 8.05 3.42 -5
11/8/2022 9:30:00 PM 17.03 62.654 8.03 2.99 -5
11/8/2022 9:45:00 PM 17.29 63.122 8.01 3 -5
11/8/2022 10:00:00 PM 17.53 63.554 8 3.01 -5
11/8/2022 10:15:00 PM 17.03 62.654 7.98 3.11 -5
11/8/2022 10:30:00 PM 17.29 63.122 7.97 2.95 -5
11/8/2022 10:45:00 PM 17.66 63.788 7.96 2.97 -5
11/8/2022 11:00:00 PM 16.66 61.988 7.93 2.94 -5
11/8/2022 11:15:00 PM 16.92 62.456 7.92 3.35 -5
11/8/2022 11:30:00 PM 17.41 63.338 7.92 2.94 -5
11/8/2022 11:45:00 PM 16.66 61.988 7.89 2.98 -5
11/9/2022 12:00:00 AM 16.66 61.988 7.88 2.92 -5
11/9/2022 12:15:00 AM 17.29 63.122 7.86 3.07 -5
11/9/2022 12:30:00 AM 17.16 62.888 7.84 2.95 -5
11/9/2022 12:45:00 AM 16.29 61.322 7.81 2.91 -5
11/9/2022 1:00:00 AM 16.92 62.456 7.79 2.94 -5
11/9/2022 1:15:00 AM 16.92 62.456 7.77 3.33 -5
11/9/2022 1:30:00 AM 16.78 62.204 7.73 2.9 -5
11/9/2022 1:45:00 AM 16.54 61.772 7.7 2.91 -5
11/9/2022 2:00:00 AM 16.66 61.988 7.68 2.96 -5
11/9/2022 2:15:00 AM 16.92 62.456 7.66 3.04 -5
11/9/2022 2:30:00 AM 17.03 62.654 7.65 2.81 -5
11/9/2022 2:45:00 AM 16.17 61.106 7.61 2.85 -5
11/9/2022 3:00:00 AM 16.4 61.52 7.59 2.86 -5
11/9/2022 3:15:00 AM 16.54 61.772 7.56 3 -5
11/9/2022 3:30:00 AM 16.55 61.79 7.55 2.9 -5
11/9/2022 3:45:00 AM 16.79 62.222 7.54 2.9 -5
11/9/2022 4:00:00 AM 16.78 62.204 7.52 2.91 -5
11/9/2022 4:15:00 AM 16.78 62.204 7.52 3.01 -5
11/9/2022 4:30:00 AM 17.03 62.654 7.5 2.91 -5
11/9/2022 4:45:00 AM 16.66 61.988 7.49 2.87 -5
11/9/2022 5:00:00 AM 16.92 62.456 7.48 2.88 -5
11/9/2022 5:15:00 AM 16.78 62.204 7.47 3.02 -5
11/9/2022 5:30:00 AM 16.66 61.988 7.46 2.91 -5
11/9/2022 5:45:00 AM 16.78 62.204 7.46 2.89 -5
11/9/2022 6:00:00 AM 16.55 61.79 7.45 2.9 -5
11/9/2022 6:15:00 AM 16.55 61.79 7.44 3 -5
11/9/2022 6:30:00 AM 16.66 61.988 7.43 2.86 -5
11/9/2022 6:45:00 AM 16.66 61.988 7.43 2.86 -5
11/9/2022 7:00:00 AM 16.79 62.222 7.43 2.85 -5
11/9/2022 7:15:00 AM 16.4 61.52 7.42 3 -5
11/9/2022 7:30:00 AM 16.4 61.52 7.43 2.82 -5
11/9/2022 7:45:00 AM 15.79 60.422 7.42 2.8 -5
11/9/2022 8:00:00 AM 16.03 60.854 7.43 2.81 -5
11/9/2022 8:15:00 AM 16.29 61.322 7.44 2.89 -5
11/9/2022 8:30:00 AM 16.03 60.854 7.46 2.69 -5
11/9/2022 8:45:00 AM 16.17 61.106 7.48 2.67 -5
11/9/2022 9:00:00 AM 16.17 61.106 7.49 2.68 -5
11/9/2022 9:15:00 AM 16.29 61.322 7.5 2.67 -5
11/9/2022 9:30:00 AM 16.17 61.106 7.52 2.64 -5
11/9/2022 9:45:00 AM 16.17 61.106 7.56 2.68 -5
11/9/2022 10:00:00 AM 16.03 60.854 7.59 2.7 -5
11/9/2022 10:15:00 AM 16.17 61.106 7.64 2.63 -5
11/9/2022 10:30:00 AM 16.17 61.106 7.67 2.63 -5
11/9/2022 10:45:00 AM 16.4 61.52 7.7 2.64 -5
11/9/2022 11:00:00 AM 16.33 61.394 7.73 2.65 -5
11/9/2022 11:15:00 AM 16.4 61.52 7.76 2.6 -5
11/9/2022 11:30:00 AM 16.17 61.106 7.78 2.6 -5
11/9/2022 11:45:00 AM 16.55 61.79 7.8 2.57 -5
11/9/2022 12:00:00 PM 16.4 61.52 7.82 2.68 -5
11/9/2022 12:15:00 PM 16.29 61.322 7.84 2.58 -5
11/9/2022 12:30:00 PM 16.66 61.988 7.86 2.58 -5
11/9/2022 12:45:00 PM 16.29 61.322 7.88 2.59 -5
11/9/2022 1:00:00 PM 16.03 60.854 7.91 2.6 -5
11/9/2022 1:15:00 PM 16.4 61.52 7.96 2.56 -5
11/9/2022 1:30:00 PM 16.66 61.988 8.01 2.6 -5
11/9/2022 1:45:00 PM 16.66 61.988 8.05 2.68 -5
11/9/2022 2:00:00 PM 16.92 62.456 8.08 2.68 -5
11/9/2022 2:15:00 PM 16.03 60.854 8.08 2.59 -5
11/9/2022 2:30:00 PM 16.54 61.772 8.12 2.6 -5
11/9/2022 2:45:00 PM 16.66 61.988 8.12 2.6 -5
11/9/2022 3:00:00 PM 16.78 62.204 8.13 2.59 -5
11/9/2022 3:15:00 PM 16.4 61.52 8.14 2.56 -5
11/9/2022 3:30:00 PM 16.4 61.52 8.15 2.57 -5
11/9/2022 3:45:00 PM 16.66 61.988 8.18 2.56 -5
11/9/2022 4:00:00 PM 16.66 61.988 8.22 2.66 -5
11/9/2022 4:15:00 PM 16.29 61.322 8.21 2.52 -5
11/9/2022 4:30:00 PM 16.4 61.52 8.22 2.57 -5
11/9/2022 4:45:00 PM 16.4 61.52 8.23 2.53 -5
11/9/2022 5:00:00 PM 16.69 62.042 8.23 2.54 -5
11/9/2022 5:15:00 PM 16.03 60.854 8.21 2.49 -5
11/9/2022 5:30:00 PM 16.29 61.322 8.23 2.56 -5
11/9/2022 5:45:00 PM 16.4 61.52 8.24 2.57 -5
11/9/2022 6:00:00 PM 16.55 61.79 8.24 2.67 -5
11/9/2022 6:15:00 PM 16.78 62.204 8.22 2.64 -5
11/9/2022 6:30:00 PM 16.03 60.854 8.22 2.61 -5
11/9/2022 6:45:00 PM 16.17 61.106 8.2 2.66 -5
11/9/2022 7:00:00 PM 16.4 61.52 8.19 2.67 -5
11/9/2022 7:15:00 PM 16.4 61.52 8.18 2.65 -5
11/9/2022 7:30:00 PM 16.55 61.79 8.17 2.7 -5
11/9/2022 7:45:00 PM 16.03 60.854 8.13 2.73 -5
11/9/2022 8:00:00 PM 16.4 61.52 8.13 2.8 -5
11/9/2022 8:15:00 PM 16.54 61.772 8.1 2.81 -5
11/9/2022 8:30:00 PM 16.54 61.772 8.09 2.74 -5
11/9/2022 8:45:00 PM 15.79 60.422 8.06 2.79 -5
11/9/2022 9:00:00 PM 16.03 60.854 8.06 2.81 -5
11/9/2022 9:15:00 PM 16.55 61.79 8.04 2.79 -5
11/9/2022 9:30:00 PM 16.03 60.854 8.03 2.78 -5
11/9/2022 9:45:00 PM 15.79 60.422 8.01 2.82 -5
11/9/2022 10:00:00 PM 16.17 61.106 8 2.85 -5
11/9/2022 10:15:00 PM 16.29 61.322 7.98 2.8 -5
11/9/2022 10:30:00 PM 15.79 60.422 7.96 2.8 -5
11/9/2022 10:45:00 PM 15.66 60.188 7.95 2.8 -5
11/9/2022 11:00:00 PM 16.17 61.106 7.95 2.79 -5
11/9/2022 11:15:00 PM 16.4 61.52 7.94 2.78 -5
11/9/2022 11:30:00 PM 15.42 59.756 7.9 2.85 -5
11/9/2022 11:45:00 PM 15.92 60.656 7.91 2.81 -5
11/10/2022 12:00:00 AM 16.17 61.106 7.9 2.87 -5
11/10/2022 12:15:00 AM 16.17 61.106 7.88 2.85 -5
11/10/2022 12:30:00 AM 15.79 60.422 7.85 2.82 -5
11/10/2022 12:45:00 AM 15.66 60.188 7.84 2.85 -5
11/10/2022 1:00:00 AM 15.92 60.656 7.82 2.87 -5
11/10/2022 1:15:00 AM 16.17 61.106 7.8 2.86 -5
11/10/2022 1:30:00 AM 16.29 61.322 7.77 2.82 -5
11/10/2022 1:45:00 AM 15.66 60.188 7.73 2.88 -5
11/10/2022 2:00:00 AM 16.03 60.854 7.72 2.93 -5
11/10/2022 2:15:00 AM 15.92 60.656 7.71 2.85 -5
11/10/2022 2:30:00 AM 16.29 61.322 7.69 2.76 -5
11/10/2022 2:45:00 AM 16.29 61.322 7.66 2.8 -5
11/10/2022 3:00:00 AM 16.17 61.106 7.64 2.86 -5
11/10/2022 3:15:00 AM 16.03 60.854 7.62 2.81 -5
11/10/2022 3:30:00 AM 16.03 60.854 7.59 2.87 -5
11/10/2022 3:45:00 AM 16.03 60.854 7.57 2.84 -5
11/10/2022 4:00:00 AM 16.17 61.106 7.56 3.04 -5
11/10/2022 4:15:00 AM 16.03 60.854 7.54 2.85 -5
11/10/2022 4:30:00 AM 16.29 61.322 7.53 2.85 -5
11/10/2022 4:45:00 AM 16.03 60.854 7.52 2.88 -5
11/10/2022 5:00:00 AM 16.03 60.854 7.52 2.92 -5
11/10/2022 5:15:00 AM 16.03 60.854 7.5 2.87 -5
11/10/2022 5:30:00 AM 16.03 60.854 7.48 2.89 -5
11/10/2022 5:45:00 AM 16.03 60.854 7.46 2.94 -5
11/10/2022 6:00:00 AM 16.17 61.106 7.46 3.08 -5
11/10/2022 6:15:00 AM 16.29 61.322 7.46 2.96 -5
11/10/2022 6:30:00 AM 16.03 60.854 7.45 2.96 -5
11/10/2022 6:45:00 AM 16.03 60.854 7.45 2.95 -5
11/10/2022 7:00:00 AM 16.17 61.106 7.45 2.14 -5
11/10/2022 7:15:00 AM 16.03 60.854 7.48 2.86 -5
11/10/2022 7:30:00 AM 16.03 60.854 7.48 2.9 -5
11/10/2022 7:45:00 AM 15.28 59.504 7.46 2.88 -5
11/10/2022 8:00:00 AM 15.66 60.188 7.48 3 -5
11/10/2022 8:15:00 AM 15.79 60.422 7.5 2.85 -5
11/10/2022 8:30:00 AM 15.79 60.422 7.52 2.76 -5
11/10/2022 8:45:00 AM 15.79 60.422 7.52 2.8 -5
11/10/2022 9:00:00 AM 15.92 60.656 7.55 2.86 -5
11/10/2022 9:15:00 AM 15.92 60.656 7.56 2.74 -5
11/10/2022 9:30:00 AM 15.79 60.422 7.59 2.72 -5
11/10/2022 9:45:00 AM 15.92 60.656 7.62 2.75 -5
11/10/2022 10:00:00 AM 15.79 60.422 7.65 2.71 -5
11/10/2022 10:15:00 AM 16.03 60.854 7.68 2.72 -5
11/10/2022 10:30:00 AM 15.92 60.656 7.71 2.7 -5
11/10/2022 10:45:00 AM 15.91 60.638 7.74 2.75 -5
11/10/2022 11:00:00 AM 15.41 59.738 7.76 2.71 -5
11/10/2022 11:15:00 AM 15.54 59.972 7.79 2.72 -5
11/10/2022 11:30:00 AM 15.92 60.656 7.82 2.71 -5
11/10/2022 11:45:00 AM 16.17 61.106 7.85 2.72 -5
11/10/2022 12:00:00 PM 15.92 60.656 7.88 2.7 -5
11/10/2022 12:15:00 PM 15.41 59.738 7.89 2.71 -5
11/10/2022 12:30:00 PM 15.92 60.656 7.94 2.67 -5
11/10/2022 12:45:00 PM 16.03 60.854 7.99 2.72 -5
11/10/2022 1:00:00 PM 16.29 61.322 8.02 2.68 -5
11/10/2022 1:15:00 PM 15.66 60.188 8.04 2.68 -5
11/10/2022 1:30:00 PM 16.03 60.854 8.08 2.66 -5
11/10/2022 1:45:00 PM 16.29 61.322 8.12 2.67 -5
11/10/2022 2:00:00 PM 15.91 60.638 8.13 2.75 -5
11/10/2022 2:15:00 PM 15.92 60.656 8.16 2.67 -5
11/10/2022 2:30:00 PM 16.4 61.52 8.18 2.67 -5
11/10/2022 2:45:00 PM 16.03 60.854 8.18 2.7 -5
11/10/2022 3:00:00 PM 16.17 61.106 8.2 2.73 -5
11/10/2022 3:15:00 PM 16.54 61.772 8.22 2.68 -5
11/10/2022 3:30:00 PM 15.91 60.638 8.21 2.68 -5
11/10/2022 3:45:00 PM 16.29 61.322 8.23 2.7 -5
11/10/2022 4:00:00 PM 16.66 61.988 8.23 2.86 -5
11/10/2022 4:15:00 PM 15.92 60.656 8.2 2.66 -5
11/10/2022 4:30:00 PM 16.55 61.79 8.25 2.68 -5
11/10/2022 4:45:00 PM 16.29 61.322 8.26 2.66 -5
11/10/2022 5:00:00 PM 16.03 60.854 8.25 2.75 -5
11/10/2022 5:15:00 PM 16.4 61.52 8.27 2.63 -5
11/10/2022 5:30:00 PM 15.92 60.656 8.25 2.7 -5
11/10/2022 5:45:00 PM 16.29 61.322 8.26 2.74 -5
11/10/2022 6:00:00 PM 16.54 61.772 8.27 2.94 -5
11/10/2022 6:15:00 PM 15.91 60.638 8.23 2.71 -5
11/10/2022 6:30:00 PM 16.29 61.322